Observation data for Clyde on 08/14/2019      Previous  Date  Next       Current Mesonet Observations  Soil Data  Daily Summary Page  Observations in Plain Language
KCL2 140500Z 05006KT 28/21 A3002 RMK A01 T02790214  RH  068%=      5-min Rain = 0
KCL2 140501Z 06006KT 28/21 A3002 RMK A01 T02790214  RH  068%=      5-min Rain = 0
KCL2 140502Z 06006KT 28/22 A3002 RMK A01 T02790215  RH  068%=      5-min Rain = 0
KCL2 140503Z 06005KT 28/22 A3002 RMK A01 T02790215  RH  068%=      5-min Rain = 0
KCL2 140504Z 06007KT 28/22 A3002 RMK A01 T02790215  RH  068%=      5-min Rain = 0
KCL2 140505Z 06007KT 28/22 A3002 RMK A01 T02790215  RH  068%=      5-min Rain = 0
KCL2 140506Z 07006KT 28/22 A3002 RMK A01 T02790215  RH  068%=      5-min Rain = 0
KCL2 140507Z 07006KT 28/22 A3002 RMK A01 T02790215  RH  068%=      5-min Rain = 0
KCL2 140508Z 07006KT 28/22 A3002 RMK A01 T02790216  RH  068%=      5-min Rain = 0
KCL2 140509Z 07007KT 28/22 A3002 RMK A01 T02790216  RH  068%=      5-min Rain = 0
KCL2 140510Z 07007KT 28/22 A3002 RMK A01 T02790216  RH  068%=      5-min Rain = 0
KCL2 140511Z 07007KT 28/22 A3002 RMK A01 T02790216  RH  068%=      5-min Rain = 0
KCL2 140512Z 07007KT 28/22 A3002 RMK A01 T02790216  RH  069%=      5-min Rain = 0
KCL2 140513Z 07006KT 28/22 A3002 RMK A01 T02790216  RH  069%=      5-min Rain = 0
KCL2 140514Z 07006KT 28/22 A3002 RMK A01 T02790216  RH  069%=      5-min Rain = 0
KCL2 140515Z 07007KT 28/22 A3002 RMK A01 T02790216  RH  069%=      5-min Rain = 0
KCL2 140516Z 07007KT 28/22 A3002 RMK A01 T02790217  RH  069%=      5-min Rain = 0
KCL2 140517Z 08006KT 28/22 A3002 RMK A01 T02790217  RH  069%=      5-min Rain = 0
KCL2 140518Z 08005KT 28/22 A3002 RMK A01 T02790217  RH  069%=      5-min Rain = 0
KCL2 140519Z 08004KT 28/22 A3002 RMK A01 T02780217  RH  069%=      5-min Rain = 0
KCL2 140520Z 09005KT 28/22 A3002 RMK A01 T02780217  RH  069%=      5-min Rain = 0
KCL2 140521Z 08005KT 28/22 A3002 RMK A01 T02780217  RH  070%=      5-min Rain = 0
KCL2 140522Z 07006KT 28/22 A3002 RMK A01 T02770217  RH  070%=      5-min Rain = 0
KCL2 140523Z 07007KT 28/22 A3002 RMK A01 T02770218  RH  070%=      5-min Rain = 0
KCL2 140524Z 07007KT 28/22 A3002 RMK A01 T02770218  RH  070%=      5-min Rain = 0
KCL2 140525Z 07007KT 28/22 A3002 RMK A01 T02770218  RH  071%=      5-min Rain = 0
KCL2 140526Z 07006KT 28/22 A3002 RMK A01 T02760219  RH  071%=      5-min Rain = 0
KCL2 140527Z 07007KT 28/22 A3002 RMK A01 T02760219  RH  071%=      5-min Rain = 0
KCL2 140528Z 06007KT 28/22 A3002 RMK A01 T02750219  RH  071%=      5-min Rain = 0
KCL2 140529Z 06007KT 28/22 A3002 RMK A01 T02750219  RH  072%=      5-min Rain = 0
KCL2 140530Z 06007KT 27/22 A3002 RMK A01 T02740219  RH  072%=      5-min Rain = 0
KCL2 140531Z 06006KT 27/22 A3002 RMK A01 T02730219  RH  072%=      5-min Rain = 0
KCL2 140532Z 05007KT 27/22 A3002 RMK A01 T02730219  RH  073%=      5-min Rain = 0
KCL2 140533Z 05007KT 27/22 A3002 RMK A01 T02720219  RH  073%=      5-min Rain = 0
KCL2 140534Z 05008KT 27/22 A3002 RMK A01 T02710219  RH  073%=      5-min Rain = 0
KCL2 140535Z 05008KT 27/22 A3002 RMK A01 T02710219  RH  073%=      5-min Rain = 0
KCL2 140536Z 05008KT 27/22 A3002 RMK A01 T02710219  RH  073%=      5-min Rain = 0
KCL2 140537Z 05007KT 27/22 A3002 RMK A01 T02700219  RH  073%=      5-min Rain = 0
KCL2 140538Z 05007KT 27/22 A3002 RMK A01 T02700219  RH  074%=      5-min Rain = 0
KCL2 140539Z 05008KT 27/22 A3002 RMK A01 T02700219  RH  074%=      5-min Rain = 0
KCL2 140540Z 05008KT 27/22 A3002 RMK A01 T02700219  RH  074%=      5-min Rain = 0
KCL2 140541Z 06007KT 27/22 A3002 RMK A01 T02700219  RH  074%=      5-min Rain = 0
KCL2 140542Z 06007KT 27/22 A3002 RMK A01 T02700219  RH  074%=      5-min Rain = 0
KCL2 140543Z 05007KT 27/22 A3002 RMK A01 T02700219  RH  074%=      5-min Rain = 0
KCL2 140544Z 05007KT 27/22 A3002 RMK A01 T02710219  RH  074%=      5-min Rain = 0
KCL2 140545Z 06007KT 27/22 A3002 RMK A01 T02700219  RH  074%=      5-min Rain = 0
KCL2 140546Z 06006KT 27/22 A3002 RMK A01 T02710220  RH  074%=      5-min Rain = 0
KCL2 140547Z 06007KT 27/22 A3002 RMK A01 T02700220  RH  074%=      5-min Rain = 0
KCL2 140548Z 06007KT 27/22 A3002 RMK A01 T02700220  RH  074%=      5-min Rain = 0
KCL2 140549Z 06006KT 27/22 A3002 RMK A01 T02700220  RH  074%=      5-min Rain = 0
KCL2 140550Z 06006KT 27/22 A3003 RMK A01 T02700220  RH  074%=      5-min Rain = 0
KCL2 140551Z 06007KT 27/22 A3002 RMK A01 T02700220  RH  074%=      5-min Rain = 0
KCL2 140552Z 06006KT 27/22 A3003 RMK A01 T02700220  RH  074%=      5-min Rain = 0
KCL2 140553Z 06007KT 27/22 A3003 RMK A01 T02700220  RH  074%=      5-min Rain = 0
KCL2 140554Z 06006KT 27/22 A3003 RMK A01 T02700220  RH  074%=      5-min Rain = 0
KCL2 140555Z 06006KT 27/22 A3003 RMK A01 T02700221  RH  074%=      5-min Rain = 0
KCL2 140556Z 06006KT 27/22 A3003 RMK A01 T02690221  RH  075%=      5-min Rain = 0
KCL2 140557Z 06006KT 27/22 A3003 RMK A01 T02690220  RH  075%=      5-min Rain = 0
KCL2 140558Z 05006KT 27/22 A3003 RMK A01 T02690221  RH  075%=      5-min Rain = 0
KCL2 140559Z 05006KT 27/22 A3003 RMK A01 T02690221  RH  075%=      5-min Rain = 0
KCL2 140600Z 05007KT 27/22 A3003 RMK A01 T02690221  RH  075%=      5-min Rain = 0
KCL2 140601Z 05007KT 27/22 A3003 RMK A01 T02690221  RH  075%=      5-min Rain = 0
KCL2 140602Z 05007KT 27/22 A3003 RMK A01 T02680221  RH  075%=      5-min Rain = 0
KCL2 140603Z 05007KT 27/22 A3003 RMK A01 T02680221  RH  075%=      5-min Rain = 0
KCL2 140604Z 05008KT 27/22 A3003 RMK A01 T02680221  RH  075%=      5-min Rain = 0
KCL2 140605Z 05007KT 27/22 A3003 RMK A01 T02680221  RH  075%=      5-min Rain = 0
KCL2 140606Z 05007KT 27/22 A3003 RMK A01 T02680221  RH  075%=      5-min Rain = 0
KCL2 140607Z 05008KT 27/22 A3003 RMK A01 T02680221  RH  075%=      5-min Rain = 0
KCL2 140608Z 05008KT 27/22 A3003 RMK A01 T02680221  RH  076%=      5-min Rain = 0
KCL2 140609Z 05009KT 27/22 A3003 RMK A01 T02680221  RH  076%=      5-min Rain = 0
KCL2 140610Z 06008KT 27/22 A3003 RMK A01 T02680222  RH  076%=      5-min Rain = 0
KCL2 140611Z 06008KT 27/22 A3003 RMK A01 T02680221  RH  076%=      5-min Rain = 0
KCL2 140612Z 06008KT 27/22 A3003 RMK A01 T02680221  RH  076%=      5-min Rain = 0
KCL2 140613Z 05008KT 27/22 A3003 RMK A01 T02680221  RH  076%=      5-min Rain = 0
KCL2 140614Z 06008KT 27/22 A3003 RMK A01 T02680222  RH  076%=      5-min Rain = 0
KCL2 140615Z 05007KT 27/22 A3003 RMK A01 T02680222  RH  076%=      5-min Rain = 0
KCL2 140616Z 05008KT 27/22 A3003 RMK A01 T02680222  RH  076%=      5-min Rain = 0
KCL2 140617Z 06008KT 27/22 A3003 RMK A01 T02670222  RH  076%=      5-min Rain = 0
KCL2 140618Z 05008KT 27/22 A3003 RMK A01 T02670222  RH  076%=      5-min Rain = 0
KCL2 140619Z 05008KT 27/22 A3003 RMK A01 T02670222  RH  076%=      5-min Rain = 0
KCL2 140620Z 06007KT 27/22 A3003 RMK A01 T02670222  RH  076%=      5-min Rain = 0
KCL2 140621Z 06008KT 27/22 A3003 RMK A01 T02670222  RH  076%=      5-min Rain = 0
KCL2 140622Z 06007KT 27/22 A3003 RMK A01 T02670222  RH  076%=      5-min Rain = 0
KCL2 140623Z 06008KT 27/22 A3003 RMK A01 T02670222  RH  076%=      5-min Rain = 0
KCL2 140624Z 06007KT 27/22 A3003 RMK A01 T02670222  RH  076%=      5-min Rain = 0
KCL2 140625Z 06008KT 27/22 A3003 RMK A01 T02670222  RH  076%=      5-min Rain = 0
KCL2 140626Z 06008KT 27/22 A3003 RMK A01 T02680222  RH  076%=      5-min Rain = 0
KCL2 140627Z 07009KT 27/22 A3003 RMK A01 T02670222  RH  076%=      5-min Rain = 0
KCL2 140628Z 06009KT 27/22 A3003 RMK A01 T02670222  RH  076%=      5-min Rain = 0
KCL2 140629Z 06008KT 27/22 A3002 RMK A01 T02680222  RH  076%=      5-min Rain = 0
KCL2 140630Z 06009KT 27/22 A3002 RMK A01 T02680222  RH  076%=      5-min Rain = 0
KCL2 140631Z 06008KT 27/22 A3002 RMK A01 T02670222  RH  076%=      5-min Rain = 0
KCL2 140632Z 06009KT 27/22 A3002 RMK A01 T02670222  RH  077%=      5-min Rain = 0
KCL2 140633Z 06007KT 27/22 A3002 RMK A01 T02660222  RH  077%=      5-min Rain = 0
KCL2 140634Z 06008KT 27/22 A3002 RMK A01 T02660223  RH  077%=      5-min Rain = 0
KCL2 140635Z 06006KT 27/22 A3002 RMK A01 T02670223  RH  077%=      5-min Rain = 0
KCL2 140636Z 06005KT 27/22 A3002 RMK A01 T02660223  RH  077%=      5-min Rain = 0
KCL2 140637Z 06007KT 27/22 A3002 RMK A01 T02660222  RH  077%=      5-min Rain = 0
KCL2 140638Z 07006KT 27/22 A3002 RMK A01 T02650222  RH  077%=      5-min Rain = 0
KCL2 140639Z 07007KT 27/22 A3002 RMK A01 T02660222  RH  077%=      5-min Rain = 0
KCL2 140640Z 07006KT 27/22 A3002 RMK A01 T02650222  RH  077%=      5-min Rain = 0
KCL2 140641Z 07007KT 27/22 A3002 RMK A01 T02650222  RH  077%=      5-min Rain = 0
KCL2 140642Z 07007KT 27/22 A3002 RMK A01 T02650222  RH  077%=      5-min Rain = 0
KCL2 140643Z 07007KT 27/22 A3002 RMK A01 T02660223  RH  077%=      5-min Rain = 0
KCL2 140644Z 07007KT 27/22 A3002 RMK A01 T02650222  RH  077%=      5-min Rain = 0
KCL2 140645Z 07007KT 27/22 A3002 RMK A01 T02660223  RH  077%=      5-min Rain = 0
KCL2 140646Z 07007KT 27/22 A3002 RMK A01 T02660223  RH  077%=      5-min Rain = 0
KCL2 140647Z 07007KT 27/22 A3002 RMK A01 T02650222  RH  077%=      5-min Rain = 0
KCL2 140648Z 08006KT 27/22 A3002 RMK A01 T02650222  RH  077%=      5-min Rain = 0
KCL2 140649Z 08005KT 27/22 A3002 RMK A01 T02650222  RH  077%=      5-min Rain = 0
KCL2 140650Z 08005KT 27/22 A3002 RMK A01 T02650222  RH  077%=      5-min Rain = 0
KCL2 140651Z 08005KT 27/22 A3002 RMK A01 T02650222  RH  077%=      5-min Rain = 0
KCL2 140652Z 08006KT 27/22 A3002 RMK A01 T02650222  RH  077%=      5-min Rain = 0
KCL2 140653Z 09006KT 27/22 A3002 RMK A01 T02650223  RH  077%=      5-min Rain = 0
KCL2 140654Z 09006KT 27/22 A3002 RMK A01 T02650223  RH  078%=      5-min Rain = 0
KCL2 140655Z 08007KT 27/22 A3002 RMK A01 T02650223  RH  078%=      5-min Rain = 0
KCL2 140656Z 09006KT 26/22 A3002 RMK A01 T02640223  RH  078%=      5-min Rain = 0
KCL2 140657Z 08006KT 26/22 A3002 RMK A01 T02640223  RH  078%=      5-min Rain = 0
KCL2 140658Z 08006KT 26/22 A3002 RMK A01 T02630223  RH  078%=      5-min Rain = 0
KCL2 140659Z 07006KT 26/22 A3002 RMK A01 T02630222  RH  078%=      5-min Rain = 0
KCL2 140700Z 07007KT 26/22 A3002 RMK A01 T02630222  RH  078%=      5-min Rain = 0
KCL2 140701Z 07007KT 26/22 A3002 RMK A01 T02640223  RH  078%=      5-min Rain = 0
KCL2 140702Z 07008KT 26/22 A3002 RMK A01 T02640223  RH  078%=      5-min Rain = 0
KCL2 140703Z 07007KT 26/22 A3002 RMK A01 T02640223  RH  078%=      5-min Rain = 0
KCL2 140704Z 07008KT 26/22 A3002 RMK A01 T02630223  RH  079%=      5-min Rain = 0
KCL2 140705Z 07007KT 26/22 A3002 RMK A01 T02620222  RH  079%=      5-min Rain = 0
KCL2 140706Z 07007KT 26/22 A3002 RMK A01 T02630223  RH  079%=      5-min Rain = 0
KCL2 140707Z 07007KT 26/22 A3002 RMK A01 T02630223  RH  079%=      5-min Rain = 0
KCL2 140708Z 07007KT 26/22 A3002 RMK A01 T02630223  RH  079%=      5-min Rain = 0
KCL2 140709Z 07006KT 26/22 A3002 RMK A01 T02630223  RH  079%=      5-min Rain = 0
KCL2 140710Z 07006KT 26/22 A3002 RMK A01 T02630223  RH  079%=      5-min Rain = 0
KCL2 140711Z 07007KT 26/22 A3002 RMK A01 T02620223  RH  079%=      5-min Rain = 0
KCL2 140712Z 07007KT 26/22 A3001 RMK A01 T02620222  RH  079%=      5-min Rain = 0
KCL2 140713Z 07007KT 26/22 A3001 RMK A01 T02620222  RH  079%=      5-min Rain = 0
KCL2 140714Z 08006KT 26/22 A3001 RMK A01 T02630223  RH  079%=      5-min Rain = 0
KCL2 140715Z 07007KT 26/22 A3001 RMK A01 T02630223  RH  079%=      5-min Rain = 0
KCL2 140716Z 07007KT 26/22 A3001 RMK A01 T02630223  RH  079%=      5-min Rain = 0
KCL2 140717Z 07008KT 26/22 A3001 RMK A01 T02630223  RH  079%=      5-min Rain = 0
KCL2 140718Z 07007KT 26/22 A3001 RMK A01 T02620223  RH  079%=      5-min Rain = 0
KCL2 140719Z 07008KT 26/22 A3001 RMK A01 T02620223  RH  079%=      5-min Rain = 0
KCL2 140720Z 07009KT 26/22 A3001 RMK A01 T02620223  RH  079%=      5-min Rain = 0
KCL2 140721Z 06008KT 26/22 A3001 RMK A01 T02610223  RH  080%=      5-min Rain = 0
KCL2 140722Z 06009KT 26/22 A3001 RMK A01 T02600223  RH  080%=      5-min Rain = 0
KCL2 140723Z 06008KT 26/22 A3001 RMK A01 T02600223  RH  080%=      5-min Rain = 0
KCL2 140724Z 07008KT 26/22 A3001 RMK A01 T02600223  RH  080%=      5-min Rain = 0
KCL2 140725Z 06009KT 26/22 A3001 RMK A01 T02600223  RH  080%=      5-min Rain = 0
KCL2 140726Z 06009KT 26/22 A3002 RMK A01 T02600223  RH  080%=      5-min Rain = 0
KCL2 140727Z 06008KT 26/22 A3002 RMK A01 T02600224  RH  080%=      5-min Rain = 0
KCL2 140728Z 06009KT 26/22 A3002 RMK A01 T02590223  RH  080%=      5-min Rain = 0
KCL2 140729Z 06009KT 26/22 A3002 RMK A01 T02590223  RH  080%=      5-min Rain = 0
KCL2 140730Z 06010KT 26/22 A3002 RMK A01 T02590223  RH  081%=      5-min Rain = 0
KCL2 140731Z 05010KT 26/22 A3002 RMK A01 T02590223  RH  081%=      5-min Rain = 0
KCL2 140732Z 05010KT 26/22 A3002 RMK A01 T02580223  RH  081%=      5-min Rain = 0
KCL2 140733Z 05011KT 26/22 A3002 RMK A01 T02580223  RH  081%=      5-min Rain = 0
KCL2 140734Z 05010KT 26/22 A3002 RMK A01 T02580223  RH  081%=      5-min Rain = 0
KCL2 140735Z 06009KT 26/22 A3002 RMK A01 T02590223  RH  081%=      5-min Rain = 0
KCL2 140736Z 06010KT 26/22 A3002 RMK A01 T02590224  RH  081%=      5-min Rain = 0
KCL2 140737Z 06010KT 26/22 A3002 RMK A01 T02590223  RH  081%=      5-min Rain = 0
KCL2 140738Z 06011KT 26/22 A3002 RMK A01 T02590224  RH  081%=      5-min Rain = 0
KCL2 140739Z 06010KT 26/22 A3002 RMK A01 T02590224  RH  081%=      5-min Rain = 0
KCL2 140740Z 06010KT 26/22 A3002 RMK A01 T02590223  RH  081%=      5-min Rain = 0
KCL2 140741Z 06011KT 26/22 A3002 RMK A01 T02590223  RH  081%=      5-min Rain = 0
KCL2 140742Z 06011KT 26/22 A3002 RMK A01 T02590223  RH  081%=      5-min Rain = 0
KCL2 140743Z 06011KT 26/22 A3002 RMK A01 T02580223  RH  081%=      5-min Rain = 0
KCL2 140744Z 06010KT 26/22 A3002 RMK A01 T02590224  RH  081%=      5-min Rain = 0
KCL2 140745Z 06011KT 26/22 A3002 RMK A01 T02580223  RH  081%=      5-min Rain = 0
KCL2 140746Z 06011KT 26/22 A3002 RMK A01 T02580223  RH  081%=      5-min Rain = 0
KCL2 140747Z 06009KT 26/22 A3002 RMK A01 T02580223  RH  081%=      5-min Rain = 0
KCL2 140748Z 05010KT 26/22 A3002 RMK A01 T02580223  RH  081%=      5-min Rain = 0
KCL2 140749Z 06010KT 26/22 A3002 RMK A01 T02580223  RH  081%=      5-min Rain = 0
KCL2 140750Z 06010KT 26/22 A3002 RMK A01 T02580223  RH  081%=      5-min Rain = 0
KCL2 140751Z 06011KT 26/22 A3002 RMK A01 T02580223  RH  081%=      5-min Rain = 0
KCL2 140752Z 06011KT 26/22 A3002 RMK A01 T02570223  RH  081%=      5-min Rain = 0
KCL2 140753Z 06010KT 26/22 A3002 RMK A01 T02570223  RH  081%=      5-min Rain = 0
KCL2 140754Z 06009KT 26/22 A3002 RMK A01 T02570223  RH  081%=      5-min Rain = 0
KCL2 140755Z 06009KT 26/22 A3003 RMK A01 T02570223  RH  081%=      5-min Rain = 0
KCL2 140756Z 06010KT 26/22 A3003 RMK A01 T02570223  RH  082%=      5-min Rain = 0
KCL2 140757Z 06009KT 26/22 A3003 RMK A01 T02570222  RH  081%=      5-min Rain = 0
KCL2 140758Z 06008KT 26/22 A3003 RMK A01 T02570222  RH  081%=      5-min Rain = 0
KCL2 140759Z 05008KT 26/22 A3003 RMK A01 T02570222  RH  081%=      5-min Rain = 0
KCL2 140800Z 06007KT 26/22 A3003 RMK A01 T02570222  RH  081%=      5-min Rain = 0
KCL2 140801Z 06008KT 26/22 A3003 RMK A01 T02570222  RH  081%=      5-min Rain = 0
KCL2 140802Z 06009KT 26/22 A3003 RMK A01 T02570222  RH  081%=      5-min Rain = 0
KCL2 140803Z 06009KT 26/22 A3003 RMK A01 T02570222  RH  081%=      5-min Rain = 0
KCL2 140804Z 06010KT 26/22 A3003 RMK A01 T02570222  RH  081%=      5-min Rain = 0
KCL2 140805Z 05009KT 26/22 A3003 RMK A01 T02570222  RH  081%=      5-min Rain = 0
KCL2 140806Z 05009KT 26/22 A3003 RMK A01 T02570222  RH  081%=      5-min Rain = 0
KCL2 140807Z 05009KT 26/22 A3003 RMK A01 T02570222  RH  081%=      5-min Rain = 0
KCL2 140808Z 05010KT 26/22 A3003 RMK A01 T02570222  RH  081%=      5-min Rain = 0
KCL2 140809Z 05009KT 26/22 A3003 RMK A01 T02570222  RH  081%=      5-min Rain = 0
KCL2 140810Z 05008KT 26/22 A3003 RMK A01 T02570222  RH  081%=      5-min Rain = 0
KCL2 140811Z 05009KT 26/22 A3003 RMK A01 T02570222  RH  081%=      5-min Rain = 0
KCL2 140812Z 05009KT 26/22 A3003 RMK A01 T02570222  RH  081%=      5-min Rain = 0
KCL2 140813Z 06008KT 26/22 A3003 RMK A01 T02570222  RH  081%=      5-min Rain = 0
KCL2 140814Z 06008KT 26/22 A3003 RMK A01 T02570222  RH  081%=      5-min Rain = 0
KCL2 140815Z 06008KT 26/22 A3003 RMK A01 T02580222  RH  081%=      5-min Rain = 0
KCL2 140816Z 06008KT 26/22 A3003 RMK A01 T02580221  RH  080%=      5-min Rain = 0
KCL2 140817Z 06008KT 26/22 A3003 RMK A01 T02580222  RH  080%=      5-min Rain = 0
KCL2 140818Z 06009KT 26/22 A3003 RMK A01 T02580221  RH  080%=      5-min Rain = 0
KCL2 140819Z 06009KT 26/22 A3003 RMK A01 T02580221  RH  080%=      5-min Rain = 0
KCL2 140820Z 06009KT 26/22 A3003 RMK A01 T02590221  RH  080%=      5-min Rain = 0
KCL2 140821Z 06008KT 26/22 A3003 RMK A01 T02590221  RH  080%=      5-min Rain = 0
KCL2 140822Z 06008KT 26/22 A3003 RMK A01 T02590221  RH  080%=      5-min Rain = 0
KCL2 140823Z 06009KT 26/22 A3003 RMK A01 T02590221  RH  080%=      5-min Rain = 0
KCL2 140824Z 06011KT 26/22 A3003 RMK A01 T02590222  RH  080%=      5-min Rain = 0
KCL2 140825Z 06011KT 26/22 A3003 RMK A01 T02590222  RH  080%=      5-min Rain = 0
KCL2 140826Z 06010KT 26/22 A3003 RMK A01 T02580222  RH  081%=      5-min Rain = 0
KCL2 140827Z 06010KT 26/22 A3003 RMK A01 T02570222  RH  081%=      5-min Rain = 0
KCL2 140828Z 06010KT 26/22 A3003 RMK A01 T02570223  RH  081%=      5-min Rain = 0
KCL2 140829Z 06008KT 26/22 A3003 RMK A01 T02570222  RH  081%=      5-min Rain = 0
KCL2 140830Z 07009KT 26/22 A3003 RMK A01 T02560222  RH  081%=      5-min Rain = 0
KCL2 140831Z 07010KT 26/22 A3003 RMK A01 T02560222  RH  082%=      5-min Rain = 0
KCL2 140832Z 06010KT 26/22 A3002 RMK A01 T02560222  RH  082%=      5-min Rain = 0
KCL2 140833Z 06010KT 26/22 A3002 RMK A01 T02560222  RH  082%=      5-min Rain = 0
KCL2 140834Z 07008KT 26/22 A3002 RMK A01 T02550222  RH  082%=      5-min Rain = 0
KCL2 140835Z 07008KT 26/22 A3002 RMK A01 T02550222  RH  082%=      5-min Rain = 0
KCL2 140836Z 07009KT 26/22 A3002 RMK A01 T02550222  RH  082%=      5-min Rain = 0
KCL2 140837Z 07008KT 26/22 A3002 RMK A01 T02550222  RH  082%=      5-min Rain = 0
KCL2 140838Z 09006KT 26/22 A3002 RMK A01 T02550222  RH  082%=      5-min Rain = 0
KCL2 140839Z 10007KT 26/22 A3002 RMK A01 T02550222  RH  082%=      5-min Rain = 0
KCL2 140840Z 08009KT 25/22 A3002 RMK A01 T02540222  RH  083%=      5-min Rain = 0
KCL2 140841Z 09006KT 25/22 A3001 RMK A01 T02540222  RH  083%=      5-min Rain = 0
KCL2 140842Z 09007KT 25/22 A3002 RMK A01 T02530222  RH  083%=      5-min Rain = 0
KCL2 140843Z 09007KT 25/22 A3001 RMK A01 T02530222  RH  083%=      5-min Rain = 0
KCL2 140844Z 09008KT 25/22 A3001 RMK A01 T02520222  RH  083%=      5-min Rain = 0
KCL2 140845Z 08008KT 25/22 A3001 RMK A01 T02520222  RH  083%=      5-min Rain = 0
KCL2 140846Z 08008KT 25/22 A3001 RMK A01 T02520222  RH  084%=      5-min Rain = 0
KCL2 140847Z 09007KT 25/22 A3001 RMK A01 T02520222  RH  084%=      5-min Rain = 0
KCL2 140848Z 08007KT 25/22 A3001 RMK A01 T02520222  RH  084%=      5-min Rain = 0
KCL2 140849Z 08007KT 25/22 A3001 RMK A01 T02510222  RH  084%=      5-min Rain = 0
KCL2 140850Z 08007KT 25/22 A3001 RMK A01 T02510222  RH  084%=      5-min Rain = 0
KCL2 140851Z 08006KT 25/22 A3001 RMK A01 T02510222  RH  084%=      5-min Rain = 0
KCL2 140852Z 09007KT 25/22 A3001 RMK A01 T02510222  RH  084%=      5-min Rain = 0
KCL2 140853Z 08007KT 25/22 A3001 RMK A01 T02510222  RH  084%=      5-min Rain = 0
KCL2 140854Z 07006KT 25/22 A3001 RMK A01 T02510222  RH  084%=      5-min Rain = 0
KCL2 140855Z 08006KT 25/22 A3001 RMK A01 T02500222  RH  084%=      5-min Rain = 0
KCL2 140856Z 08006KT 25/22 A3001 RMK A01 T02500222  RH  084%=      5-min Rain = 0
KCL2 140857Z 08005KT 25/22 A3001 RMK A01 T02500222  RH  084%=      5-min Rain = 0
KCL2 140858Z 07006KT 25/22 A3001 RMK A01 T02500222  RH  084%=      5-min Rain = 0
KCL2 140859Z 08007KT 25/22 A3001 RMK A01 T02490222  RH  085%=      5-min Rain = 0
KCL2 140900Z 08006KT 25/22 A3001 RMK A01 T02490222  RH  085%=      5-min Rain = 0
KCL2 140901Z 08005KT 25/22 A3001 RMK A01 T02490222  RH  085%=      5-min Rain = 0
KCL2 140902Z 08005KT 25/22 A3001 RMK A01 T02490222  RH  085%=      5-min Rain = 0
KCL2 140903Z 08006KT 25/22 A3001 RMK A01 T02490222  RH  085%=      5-min Rain = 0
KCL2 140904Z 08005KT 25/22 A3001 RMK A01 T02490222  RH  085%=      5-min Rain = 0
KCL2 140905Z 08006KT 25/22 A3001 RMK A01 T02490222  RH  085%=      5-min Rain = 0
KCL2 140906Z 08007KT 25/22 A3001 RMK A01 T02490222  RH  085%=      5-min Rain = 0
KCL2 140907Z 09007KT 25/22 A3001 RMK A01 T02480222  RH  085%=      5-min Rain = 0
KCL2 140908Z 08007KT 25/22 A3001 RMK A01 T02490222  RH  085%=      5-min Rain = 0
KCL2 140909Z 08007KT 25/22 A3001 RMK A01 T02480222  RH  085%=      5-min Rain = 0
KCL2 140910Z 08008KT 25/22 A3002 RMK A01 T02480221  RH  085%=      5-min Rain = 0
KCL2 140911Z 07008KT 25/22 A3002 RMK A01 T02480222  RH  085%=      5-min Rain = 0
KCL2 140912Z 07008KT 25/22 A3002 RMK A01 T02480221  RH  085%=      5-min Rain = 0
KCL2 140913Z 07008KT 25/22 A3002 RMK A01 T02480222  RH  085%=      5-min Rain = 0
KCL2 140914Z 07009KT 25/22 A3002 RMK A01 T02480222  RH  085%=      5-min Rain = 0
KCL2 140915Z 07008KT 25/22 A3002 RMK A01 T02480222  RH  085%=      5-min Rain = 0
KCL2 140916Z 07008KT 25/22 A3002 RMK A01 T02470222  RH  086%=      5-min Rain = 0
KCL2 140917Z 07007KT 25/22 A3002 RMK A01 T02470222  RH  086%=      5-min Rain = 0
KCL2 140918Z 07010KT 25/22 A3002 RMK A01 T02470221  RH  086%=      5-min Rain = 0
KCL2 140919Z 07009KT 25/22 A3002 RMK A01 T02460221  RH  086%=      5-min Rain = 0
KCL2 140920Z 07008KT 25/22 A3002 RMK A01 T02470222  RH  086%=      5-min Rain = 0
KCL2 140921Z 07010KT 25/22 A3002 RMK A01 T02460221  RH  086%=      5-min Rain = 0
KCL2 140922Z 06010KT 25/22 A3002 RMK A01 T02460221  RH  086%=      5-min Rain = 0
KCL2 140923Z 06010KT 25/22 A3002 RMK A01 T02460221  RH  086%=      5-min Rain = 0
KCL2 140924Z 06010KT 25/22 A3002 RMK A01 T02460221  RH  086%=      5-min Rain = 0
KCL2 140925Z 06011KT 25/22 A3002 RMK A01 T02460221  RH  086%=      5-min Rain = 0
KCL2 140926Z 06011KT 25/22 A3002 RMK A01 T02460221  RH  086%=      5-min Rain = 0
KCL2 140927Z 06011KT 25/22 A3002 RMK A01 T02450221  RH  086%=      5-min Rain = 0
KCL2 140928Z 06011KT 25/22 A3002 RMK A01 T02450221  RH  086%=      5-min Rain = 0
KCL2 140929Z 06011KT 25/22 A3002 RMK A01 T02450221  RH  086%=      5-min Rain = 0
KCL2 140930Z 06010KT 25/22 A3002 RMK A01 T02450221  RH  086%=      5-min Rain = 0
KCL2 140931Z 06010KT 25/22 A3002 RMK A01 T02450221  RH  086%=      5-min Rain = 0
KCL2 140932Z 06010KT 25/22 A3002 RMK A01 T02450221  RH  087%=      5-min Rain = 0
KCL2 140933Z 06010KT 25/22 A3002 RMK A01 T02450221  RH  087%=      5-min Rain = 0
KCL2 140934Z 06009KT 25/22 A3002 RMK A01 T02450221  RH  087%=      5-min Rain = 0
KCL2 140935Z 06008KT 24/22 A3002 RMK A01 T02440221  RH  087%=      5-min Rain = 0
KCL2 140936Z 06010KT 24/22 A3003 RMK A01 T02440221  RH  087%=      5-min Rain = 0
KCL2 140937Z 05010KT 24/22 A3003 RMK A01 T02440221  RH  087%=      5-min Rain = 0
KCL2 140938Z 05010KT 24/22 A3003 RMK A01 T02440221  RH  087%=      5-min Rain = 0
KCL2 140939Z 05009KT 24/22 A3003 RMK A01 T02440221  RH  087%=      5-min Rain = 0
KCL2 140940Z 05010KT 24/22 A3003 RMK A01 T02430221  RH  087%=      5-min Rain = 0
KCL2 140941Z 05010KT 24/22 A3003 RMK A01 T02430221  RH  087%=      5-min Rain = 0
KCL2 140942Z 06010KT 24/22 A3003 RMK A01 T02430221  RH  087%=      5-min Rain = 0
KCL2 140943Z 05009KT 24/22 A3003 RMK A01 T02440221  RH  087%=      5-min Rain = 0
KCL2 140944Z 06010KT 24/22 A3003 RMK A01 T02430221  RH  087%=      5-min Rain = 0
KCL2 140945Z 05009KT 24/22 A3003 RMK A01 T02430220  RH  087%=      5-min Rain = 0
KCL2 140946Z 06009KT 24/22 A3003 RMK A01 T02430221  RH  087%=      5-min Rain = 0
KCL2 140947Z 06009KT 24/22 A3003 RMK A01 T02430221  RH  087%=      5-min Rain = 0
KCL2 140948Z 06008KT 24/22 A3003 RMK A01 T02430221  RH  087%=      5-min Rain = 0
KCL2 140949Z 05008KT 24/22 A3003 RMK A01 T02430221  RH  087%=      5-min Rain = 0
KCL2 140950Z 06008KT 24/22 A3003 RMK A01 T02430221  RH  087%=      5-min Rain = 0
KCL2 140951Z 06009KT 24/22 A3003 RMK A01 T02420220  RH  088%=      5-min Rain = 0
KCL2 140952Z 06010KT 24/22 A3003 RMK A01 T02430221  RH  088%=      5-min Rain = 0
KCL2 140953Z 05009KT 24/22 A3003 RMK A01 T02430221  RH  088%=      5-min Rain = 0
KCL2 140954Z 05010KT 24/22 A3003 RMK A01 T02420221  RH  088%=      5-min Rain = 0
KCL2 140955Z 06009KT 24/22 A3003 RMK A01 T02420220  RH  088%=      5-min Rain = 0
KCL2 140956Z 06008KT 24/22 A3003 RMK A01 T02420221  RH  088%=      5-min Rain = 0
KCL2 140957Z 06009KT 24/22 A3003 RMK A01 T02420221  RH  088%=      5-min Rain = 0
KCL2 140958Z 06011KT 24/22 A3003 RMK A01 T02420221  RH  088%=      5-min Rain = 0
KCL2 140959Z 06011KT 24/22 A3003 RMK A01 T02420220  RH  088%=      5-min Rain = 0
KCL2 141000Z 07011KT 24/22 A3003 RMK A01 T02420221  RH  088%=      5-min Rain = 0
KCL2 141001Z 07010KT 24/22 A3003 RMK A01 T02420220  RH  088%=      5-min Rain = 0
KCL2 141002Z 07011KT 24/22 A3003 RMK A01 T02420220  RH  088%=      5-min Rain = 0
KCL2 141003Z 07009KT 24/22 A3003 RMK A01 T02420220  RH  088%=      5-min Rain = 0
KCL2 141004Z 07008KT 24/22 A3003 RMK A01 T02420220  RH  088%=      5-min Rain = 0
KCL2 141005Z 07007KT 24/22 A3003 RMK A01 T02420220  RH  088%=      5-min Rain = 0
KCL2 141006Z 07008KT 24/22 A3003 RMK A01 T02420220  RH  088%=      5-min Rain = 0
KCL2 141007Z 07008KT 24/22 A3003 RMK A01 T02420220  RH  088%=      5-min Rain = 0
KCL2 141008Z 07008KT 24/22 A3003 RMK A01 T02420220  RH  088%=      5-min Rain = 0
KCL2 141009Z 08007KT 24/22 A3003 RMK A01 T02420221  RH  088%=      5-min Rain = 0
KCL2 141010Z 07007KT 24/22 A3003 RMK A01 T02420220  RH  088%=      5-min Rain = 0
KCL2 141011Z 07009KT 24/22 A3003 RMK A01 T02410220  RH  088%=      5-min Rain = 0
KCL2 141012Z 07008KT 24/22 A3003 RMK A01 T02420220  RH  088%=      5-min Rain = 0
KCL2 141013Z 07009KT 24/22 A3003 RMK A01 T02410220  RH  088%=      5-min Rain = 0
KCL2 141014Z 07008KT 24/22 A3003 RMK A01 T02420220  RH  088%=      5-min Rain = 0
KCL2 141015Z 07010KT 24/22 A3003 RMK A01 T02410220  RH  088%=      5-min Rain = 0
KCL2 141016Z 07010KT 24/22 A3003 RMK A01 T02410220  RH  088%=      5-min Rain = 0
KCL2 141017Z 06009KT 24/22 A3003 RMK A01 T02410220  RH  088%=      5-min Rain = 0
KCL2 141018Z 06009KT 24/22 A3003 RMK A01 T02410220  RH  088%=      5-min Rain = 0
KCL2 141019Z 05009KT 24/22 A3003 RMK A01 T02400220  RH  088%=      5-min Rain = 0
KCL2 141020Z 06009KT 24/22 A3003 RMK A01 T02400220  RH  089%=      5-min Rain = 0
KCL2 141021Z 06010KT 24/22 A3004 RMK A01 T02400220  RH  089%=      5-min Rain = 0
KCL2 141022Z 05011KT 24/22 A3004 RMK A01 T02390219  RH  089%=      5-min Rain = 0
KCL2 141023Z 06010KT 24/22 A3004 RMK A01 T02390219  RH  089%=      5-min Rain = 0
KCL2 141024Z 06010KT 24/22 A3004 RMK A01 T02390219  RH  089%=      5-min Rain = 0
KCL2 141025Z 06010KT 24/22 A3004 RMK A01 T02390219  RH  089%=      5-min Rain = 0
KCL2 141026Z 06010KT 24/22 A3004 RMK A01 T02390219  RH  088%=      5-min Rain = 0
KCL2 141027Z 06013KT 24/22 A3003 RMK A01 T02390218  RH  088%=      5-min Rain = 0
KCL2 141028Z 06012KT 24/22 A3003 RMK A01 T02390218  RH  088%=      5-min Rain = 0
KCL2 141029Z 06011KT 24/22 A3003 RMK A01 T02390217  RH  088%=      5-min Rain = 0
KCL2 141030Z 06010KT 24/22 A3003 RMK A01 T02390218  RH  088%=      5-min Rain = 0
KCL2 141031Z 06010KT 24/22 A3003 RMK A01 T02390217  RH  088%=      5-min Rain = 0
KCL2 141032Z 06010KT 24/22 A3003 RMK A01 T02390217  RH  088%=      5-min Rain = 0
KCL2 141033Z 06011KT 24/22 A3003 RMK A01 T02390217  RH  088%=      5-min Rain = 0
KCL2 141034Z 06011KT 24/22 A3003 RMK A01 T02390217  RH  088%=      5-min Rain = 0
KCL2 141035Z 06010KT 24/22 A3003 RMK A01 T02390217  RH  088%=      5-min Rain = 0
KCL2 141036Z 07011KT 24/22 A3003 RMK A01 T02380217  RH  088%=      5-min Rain = 0
KCL2 141037Z 06011KT 24/22 A3003 RMK A01 T02380216  RH  087%=      5-min Rain = 0
KCL2 141038Z 06012KT 24/22 A3004 RMK A01 T02380216  RH  087%=      5-min Rain = 0
KCL2 141039Z 06011KT 24/22 A3004 RMK A01 T02380216  RH  087%=      5-min Rain = 0
KCL2 141040Z 06012KT 24/22 A3004 RMK A01 T02380216  RH  087%=      5-min Rain = 0
KCL2 141041Z 06012KT 24/22 A3004 RMK A01 T02380216  RH  087%=      5-min Rain = 0
KCL2 141042Z 06013KT 24/22 A3004 RMK A01 T02380215  RH  087%=      5-min Rain = 0
KCL2 141043Z 06011KT 24/22 A3004 RMK A01 T02380215  RH  087%=      5-min Rain = 0
KCL2 141044Z 05015KT 24/22 A3004 RMK A01 T02380215  RH  087%=      5-min Rain = 0
KCL2 141045Z 05014KT 24/22 A3004 RMK A01 T02370215  RH  087%=      5-min Rain = 0
KCL2 141046Z 05013KT 24/22 A3004 RMK A01 T02370215  RH  087%=      5-min Rain = 0
KCL2 141047Z 05014KT 24/22 A3004 RMK A01 T02370215  RH  088%=      5-min Rain = 0
KCL2 141048Z 05014KT 24/22 A3004 RMK A01 T02360215  RH  088%=      5-min Rain = 0
KCL2 141049Z 05012KT 24/22 A3004 RMK A01 T02360215  RH  088%=      5-min Rain = 0
KCL2 141050Z 05010KT 24/21 A3004 RMK A01 T02360214  RH  088%=      5-min Rain = 0
KCL2 141051Z 05012KT 24/21 A3005 RMK A01 T02350214  RH  088%=      5-min Rain = 0
KCL2 141052Z 05013KT 24/21 A3004 RMK A01 T02350214  RH  088%=      5-min Rain = 0
KCL2 141053Z 05014KT 24/21 A3004 RMK A01 T02350214  RH  088%=      5-min Rain = 0
KCL2 141054Z 05013KT 24/21 A3004 RMK A01 T02350214  RH  088%=      5-min Rain = 0
KCL2 141055Z 05012KT 24/21 A3004 RMK A01 T02350214  RH  088%=      5-min Rain = 0
KCL2 141056Z 05012KT 24/21 A3004 RMK A01 T02350214  RH  088%=      5-min Rain = 0
KCL2 141057Z 06014KT 24/21 A3004 RMK A01 T02350213  RH  088%=      5-min Rain = 0
KCL2 141058Z 06015KT 24/21 A3004 RMK A01 T02350213  RH  088%=      5-min Rain = 0
KCL2 141059Z 05014KT 24/21 A3004 RMK A01 T02350213  RH  088%=      5-min Rain = 0
KCL2 141100Z 05014KT 23/21 A3005 RMK A01 T02340213  RH  088%=      5-min Rain = 0
KCL2 141101Z 06014KT 24/21 A3005 RMK A01 T02350213  RH  088%=      5-min Rain = 0
KCL2 141102Z 06015KT 24/21 A3005 RMK A01 T02350213  RH  088%=      5-min Rain = 0
KCL2 141103Z 06012KT 23/21 A3005 RMK A01 T02340213  RH  088%=      5-min Rain = 0
KCL2 141104Z 05014KT 24/21 A3005 RMK A01 T02350213  RH  088%=      5-min Rain = 0
KCL2 141105Z 05012KT 23/21 A3005 RMK A01 T02340213  RH  088%=      5-min Rain = 0
KCL2 141106Z 05012KT 23/21 A3005 RMK A01 T02340213  RH  088%=      5-min Rain = 0
KCL2 141107Z 05012KT 23/21 A3005 RMK A01 T02340213  RH  088%=      5-min Rain = 0
KCL2 141108Z 05010KT 23/21 A3005 RMK A01 T02340213  RH  088%=      5-min Rain = 0
KCL2 141109Z 05012KT 23/21 A3005 RMK A01 T02340213  RH  088%=      5-min Rain = 0
KCL2 141110Z 05010KT 23/21 A3005 RMK A01 T02330213  RH  088%=      5-min Rain = 0
KCL2 141111Z 05009KT 23/21 A3006 RMK A01 T02330213  RH  088%=      5-min Rain = 0
KCL2 141112Z 05008KT 23/21 A3006 RMK A01 T02330213  RH  089%=      5-min Rain = 0
KCL2 141113Z 05010KT 23/21 A3006 RMK A01 T02330213  RH  089%=      5-min Rain = 0
KCL2 141114Z 05011KT 23/21 A3006 RMK A01 T02320213  RH  089%=      5-min Rain = 0
KCL2 141115Z 05009KT 23/21 A3006 RMK A01 T02320213  RH  089%=      5-min Rain = 0
KCL2 141116Z 06009KT 23/21 A3005 RMK A01 T02320213  RH  089%=      5-min Rain = 0
KCL2 141117Z 06010KT 23/21 A3005 RMK A01 T02320213  RH  089%=      5-min Rain = 0
KCL2 141118Z 06008KT 23/21 A3005 RMK A01 T02320213  RH  089%=      5-min Rain = 0
KCL2 141119Z 06006KT 23/21 A3005 RMK A01 T02320213  RH  089%=      5-min Rain = 0
KCL2 141120Z 05008KT 23/21 A3005 RMK A01 T02320214  RH  089%=      5-min Rain = 0
KCL2 141121Z 06009KT 23/21 A3005 RMK A01 T02320214  RH  089%=      5-min Rain = 0
KCL2 141122Z 06011KT 23/21 A3005 RMK A01 T02320214  RH  089%=      5-min Rain = 0
KCL2 141123Z 06011KT 23/21 A3005 RMK A01 T02320214  RH  089%=      5-min Rain = 0
KCL2 141124Z 06010KT 23/21 A3005 RMK A01 T02320214  RH  089%=      5-min Rain = 0
KCL2 141125Z 06009KT 23/21 A3005 RMK A01 T02320214  RH  089%=      5-min Rain = 0
KCL2 141126Z 06011KT 23/21 A3005 RMK A01 T02320214  RH  089%=      5-min Rain = 0
KCL2 141127Z 06012KT 23/21 A3004 RMK A01 T02320214  RH  090%=      5-min Rain = 0
KCL2 141128Z 06013KT 23/21 A3004 RMK A01 T02320214  RH  090%=      5-min Rain = 0
KCL2 141129Z 07012KT 23/21 A3004 RMK A01 T02320214  RH  090%=      5-min Rain = 0
KCL2 141130Z 06012KT 23/21 A3004 RMK A01 T02320214  RH  090%=      5-min Rain = 0
KCL2 141131Z 06015KT 23/21 A3004 RMK A01 T02320214  RH  090%=      5-min Rain = 0
KCL2 141132Z 06014KT 23/21 A3004 RMK A01 T02320214  RH  090%=      5-min Rain = 0
KCL2 141133Z 06014KT 23/21 A3004 RMK A01 T02310214  RH  090%=      5-min Rain = 0
KCL2 141134Z 06013KT 23/21 A3005 RMK A01 T02310214  RH  090%=      5-min Rain = 0
KCL2 141135Z 06013KT 23/21 A3005 RMK A01 T02310214  RH  090%=      5-min Rain = 0
KCL2 141136Z 06014KT 23/21 A3005 RMK A01 T02310214  RH  090%=      5-min Rain = 0
KCL2 141137Z 06013KT 23/21 A3005 RMK A01 T02310214  RH  090%=      5-min Rain = 0
KCL2 141138Z 06012KT 23/21 A3005 RMK A01 T02310214  RH  090%=      5-min Rain = 0
KCL2 141139Z 06010KT 23/21 A3005 RMK A01 T02300214  RH  090%=      5-min Rain = 0
KCL2 141140Z 06010KT 23/21 A3005 RMK A01 T02300214  RH  091%=      5-min Rain = 0
KCL2 141141Z 06011KT 23/21 A3005 RMK A01 T02300214  RH  091%=      5-min Rain = 0
KCL2 141142Z 06010KT 23/21 A3005 RMK A01 T02300214  RH  091%=      5-min Rain = 0
KCL2 141143Z 06010KT 23/21 A3005 RMK A01 T02300214  RH  091%=      5-min Rain = 0
KCL2 141144Z 06010KT 23/21 A3005 RMK A01 T02300214  RH  091%=      5-min Rain = 0
KCL2 141145Z 06011KT 23/22 A3005 RMK A01 T02300215  RH  091%=      5-min Rain = 0
KCL2 141146Z 06012KT 23/22 A3005 RMK A01 T02300215  RH  091%=      5-min Rain = 0
KCL2 141147Z 06012KT 23/22 A3005 RMK A01 T02300215  RH  091%=      5-min Rain = 0
KCL2 141148Z 06012KT 23/22 A3005 RMK A01 T02300215  RH  091%=      5-min Rain = 0
KCL2 141149Z 07012KT 23/22 A3005 RMK A01 T02300215  RH  091%=      5-min Rain = 0
KCL2 141150Z 06010KT 23/22 A3005 RMK A01 T02290215  RH  091%=      5-min Rain = 0
KCL2 141151Z 06012KT 23/22 A3005 RMK A01 T02300215  RH  091%=      5-min Rain = 0
KCL2 141152Z 06011KT 23/22 A3005 RMK A01 T02290215  RH  092%=      5-min Rain = 0
KCL2 141153Z 06012KT 23/22 A3005 RMK A01 T02290215  RH  092%=      5-min Rain = 0
KCL2 141154Z 06012KT 23/22 A3005 RMK A01 T02290215  RH  092%=      5-min Rain = 0
KCL2 141155Z 06013KT 23/22 A3005 RMK A01 T02290215  RH  092%=      5-min Rain = 0
KCL2 141156Z 06012KT 23/22 A3005 RMK A01 T02290216  RH  092%=      5-min Rain = 0
KCL2 141157Z 06014KT 23/22 A3005 RMK A01 T02290216  RH  092%=      5-min Rain = 0
KCL2 141158Z 06013KT 23/22 A3005 RMK A01 T02290216  RH  092%=      5-min Rain = 0
KCL2 141159Z 06012KT 23/22 A3005 RMK A01 T02290216  RH  092%=      5-min Rain = 0
KCL2 141200Z 05011KT 23/22 A3006 RMK A01 T02290216  RH  092%=      5-min Rain = 0
KCL2 141201Z 06012KT 23/22 A3006 RMK A01 T02290217  RH  092%=      5-min Rain = 0
KCL2 141202Z 06012KT 23/22 A3006 RMK A01 T02290216  RH  092%=      5-min Rain = 0
KCL2 141203Z 06012KT 23/22 A3006 RMK A01 T02290216  RH  093%=      5-min Rain = 0
KCL2 141204Z 06011KT 23/22 A3006 RMK A01 T02290217  RH  093%=      5-min Rain = 0
KCL2 141205Z 06012KT 23/22 A3006 RMK A01 T02290217  RH  093%=      5-min Rain = 0
KCL2 141206Z 06013KT 23/22 A3006 RMK A01 T02290217  RH  093%=      5-min Rain = 0
KCL2 141207Z 07014KT 23/22 A3006 RMK A01 T02300217  RH  093%=      5-min Rain = 0
KCL2 141208Z 06012KT 23/22 A3006 RMK A01 T02300217  RH  093%=      5-min Rain = 0
KCL2 141209Z 07014KT 23/22 A3006 RMK A01 T02300218  RH  093%=      5-min Rain = 0
KCL2 141210Z 06013KT 23/22 A3006 RMK A01 T02300218  RH  093%=      5-min Rain = 0
KCL2 141211Z 06014KT 23/22 A3006 RMK A01 T02300218  RH  093%=      5-min Rain = 0
KCL2 141212Z 06014G19KT 23/22 A3006 RMK A01 T02300218  RH  093%=      5-min Rain = 0
KCL2 141213Z 06016KT 23/22 A3006 RMK A01 T02300218  RH  093%=      5-min Rain = 0
KCL2 141214Z 06013G18KT 23/22 A3006 RMK A01 T02300219  RH  093%=      5-min Rain = 0
KCL2 141215Z 06014KT 23/22 A3006 RMK A01 T02300219  RH  093%=      5-min Rain = 0
KCL2 141216Z 06014KT 23/22 A3006 RMK A01 T02300218  RH  093%=      5-min Rain = 0
KCL2 141217Z 06013KT 23/22 A3006 RMK A01 T02300218  RH  093%=      5-min Rain = 0
KCL2 141218Z 06012KT 23/22 A3006 RMK A01 T02300219  RH  093%=      5-min Rain = 0
KCL2 141219Z 06012KT 23/22 A3006 RMK A01 T02300218  RH  093%=      5-min Rain = 0
KCL2 141220Z 06012KT 23/22 A3006 RMK A01 T02300218  RH  093%=      5-min Rain = 0
KCL2 141221Z 06015KT 23/22 A3006 RMK A01 T02300219  RH  093%=      5-min Rain = 0
KCL2 141222Z 06012KT 23/22 A3006 RMK A01 T02300218  RH  093%=      5-min Rain = 0
KCL2 141223Z 06015KT 23/22 A3006 RMK A01 T02300219  RH  093%=      5-min Rain = 0
KCL2 141224Z 07016KT 23/22 A3006 RMK A01 T02300219  RH  093%=      5-min Rain = 0
KCL2 141225Z 07015KT 23/22 A3006 RMK A01 T02300219  RH  093%=      5-min Rain = 0
KCL2 141226Z 07015KT 23/22 A3006 RMK A01 T02310219  RH  093%=      5-min Rain = 0
KCL2 141227Z 07013KT 23/22 A3006 RMK A01 T02310219  RH  093%=      5-min Rain = 0
KCL2 141228Z 06014KT 23/22 A3006 RMK A01 T02310219  RH  093%=      5-min Rain = 0
KCL2 141229Z 06012KT 23/22 A3006 RMK A01 T02310220  RH  093%=      5-min Rain = 0
KCL2 141230Z 06013KT 23/22 A3006 RMK A01 T02310219  RH  093%=      5-min Rain = 0
KCL2 141231Z 07014G19KT 23/22 A3007 RMK A01 T02310219  RH  093%=      5-min Rain = 0
KCL2 141232Z 07016G21KT 23/22 A3006 RMK A01 T02310219  RH  093%=      5-min Rain = 0
KCL2 141233Z 06019KT 23/22 A3007 RMK A01 T02310220  RH  093%=      5-min Rain = 0
KCL2 141234Z 06019KT 23/22 A3007 RMK A01 T02310219  RH  093%=      5-min Rain = 0
KCL2 141235Z 07018KT 23/22 A3007 RMK A01 T02310220  RH  093%=      5-min Rain = 0
KCL2 141236Z 06014KT 23/22 A3007 RMK A01 T02310219  RH  093%=      5-min Rain = 0
KCL2 141237Z 07016KT 23/22 A3007 RMK A01 T02320220  RH  093%=      5-min Rain = 0
KCL2 141238Z 06015KT 23/22 A3007 RMK A01 T02320220  RH  093%=      5-min Rain = 0
KCL2 141239Z 07015KT 23/22 A3007 RMK A01 T02320220  RH  093%=      5-min Rain = 0
KCL2 141240Z 07012KT 23/22 A3007 RMK A01 T02320220  RH  093%=      5-min Rain = 0
KCL2 141241Z 07014KT 23/22 A3007 RMK A01 T02320220  RH  093%=      5-min Rain = 0
KCL2 141242Z 07013KT 23/22 A3007 RMK A01 T02320220  RH  093%=      5-min Rain = 0
KCL2 141243Z 06013KT 23/22 A3007 RMK A01 T02320220  RH  093%=      5-min Rain = 0
KCL2 141244Z 07013KT 23/22 A3007 RMK A01 T02330220  RH  093%=      5-min Rain = 0
KCL2 141245Z 07016KT 23/22 A3007 RMK A01 T02330220  RH  092%=      5-min Rain = 0
KCL2 141246Z 07015KT 23/22 A3007 RMK A01 T02330220  RH  092%=      5-min Rain = 0
KCL2 141247Z 07015KT 23/22 A3007 RMK A01 T02330220  RH  092%=      5-min Rain = 0
KCL2 141248Z 07014KT 23/22 A3007 RMK A01 T02330220  RH  092%=      5-min Rain = 0
KCL2 141249Z 07012KT 23/22 A3007 RMK A01 T02340220  RH  092%=      5-min Rain = 0
KCL2 141250Z 07014KT 23/22 A3007 RMK A01 T02330220  RH  092%=      5-min Rain = 0
KCL2 141251Z 07015KT 23/22 A3007 RMK A01 T02330220  RH  092%=      5-min Rain = 0
KCL2 141252Z 07013KT 23/22 A3007 RMK A01 T02340220  RH  092%=      5-min Rain = 0
KCL2 141253Z 07013KT 23/22 A3007 RMK A01 T02340220  RH  092%=      5-min Rain = 0
KCL2 141254Z 07012KT 23/22 A3007 RMK A01 T02340220  RH  092%=      5-min Rain = 0
KCL2 141255Z 07013G18KT 23/22 A3007 RMK A01 T02340220  RH  092%=      5-min Rain = 0
KCL2 141256Z 07014KT 23/22 A3007 RMK A01 T02340220  RH  092%=      5-min Rain = 0
KCL2 141257Z 07014KT 23/22 A3007 RMK A01 T02340220  RH  092%=      5-min Rain = 0
KCL2 141258Z 08011KT 23/22 A3007 RMK A01 T02340220  RH  092%=      5-min Rain = 0
KCL2 141259Z 08012KT 23/22 A3007 RMK A01 T02340220  RH  092%=      5-min Rain = 0
KCL2 141300Z 07013G19KT 23/22 A3007 RMK A01 T02340220  RH  092%=      5-min Rain = 0
KCL2 141301Z 08014G19KT 23/22 A3007 RMK A01 T02340220  RH  092%=      5-min Rain = 0
KCL2 141302Z 08012KT 23/22 A3007 RMK A01 T02340220  RH  092%=      5-min Rain = 0
KCL2 141303Z 07010KT 24/22 A3007 RMK A01 T02350220  RH  091%=      5-min Rain = 0
KCL2 141304Z 07011KT 24/22 A3007 RMK A01 T02360220  RH  091%=      5-min Rain = 0
KCL2 141305Z 07012KT 24/22 A3007 RMK A01 T02360220  RH  091%=      5-min Rain = 0
KCL2 141306Z 07014KT 24/22 A3007 RMK A01 T02360220  RH  091%=      5-min Rain = 0
KCL2 141307Z 07014KT 24/22 A3007 RMK A01 T02360221  RH  091%=      5-min Rain = 0
KCL2 141308Z 08013KT 24/22 A3007 RMK A01 T02360221  RH  091%=      5-min Rain = 0
KCL2 141309Z 07013KT 24/22 A3007 RMK A01 T02360220  RH  091%=      5-min Rain = 0
KCL2 141310Z 08012KT 24/22 A3007 RMK A01 T02360220  RH  091%=      5-min Rain = 0
KCL2 141311Z 08013KT 24/22 A3007 RMK A01 T02370220  RH  091%=      5-min Rain = 0
KCL2 141312Z 07011KT 24/22 A3007 RMK A01 T02360220  RH  091%=      5-min Rain = 0
KCL2 141313Z 07012KT 24/22 A3007 RMK A01 T02370220  RH  091%=      5-min Rain = 0
KCL2 141314Z 07012KT 24/22 A3007 RMK A01 T02370220  RH  090%=      5-min Rain = 0
KCL2 141315Z 07014KT 24/22 A3007 RMK A01 T02370220  RH  090%=      5-min Rain = 0
KCL2 141316Z 08012G17KT 24/22 A3007 RMK A01 T02380221  RH  090%=      5-min Rain = 0
KCL2 141317Z 07013KT 24/22 A3007 RMK A01 T02380221  RH  090%=      5-min Rain = 0
KCL2 141318Z 08011KT 24/22 A3007 RMK A01 T02370220  RH  090%=      5-min Rain = 0
KCL2 141319Z 09011G16KT 24/22 A3007 RMK A01 T02380221  RH  090%=      5-min Rain = 0
KCL2 141320Z 09012KT 24/22 A3007 RMK A01 T02380221  RH  090%=      5-min Rain = 0
KCL2 141321Z 08012KT 24/22 A3008 RMK A01 T02380220  RH  090%=      5-min Rain = 0
KCL2 141322Z 08013KT 24/22 A3008 RMK A01 T02380221  RH  090%=      5-min Rain = 0
KCL2 141323Z 08013KT 24/22 A3008 RMK A01 T02380220  RH  090%=      5-min Rain = 0
KCL2 141324Z 07012KT 24/22 A3008 RMK A01 T02390221  RH  090%=      5-min Rain = 0
KCL2 141325Z 08011KT 24/22 A3008 RMK A01 T02390221  RH  090%=      5-min Rain = 0
KCL2 141326Z 08012KT 24/22 A3008 RMK A01 T02390221  RH  089%=      5-min Rain = 0
KCL2 141327Z 09013KT 24/22 A3008 RMK A01 T02390220  RH  089%=      5-min Rain = 0
KCL2 141328Z 07013KT 24/22 A3008 RMK A01 T02400220  RH  089%=      5-min Rain = 0
KCL2 141329Z 08013G18KT 24/22 A3008 RMK A01 T02400220  RH  089%=      5-min Rain = 0
KCL2 141330Z 08012KT 24/22 A3008 RMK A01 T02400220  RH  089%=      5-min Rain = 0
KCL2 141331Z 08012KT 24/22 A3008 RMK A01 T02410220  RH  089%=      5-min Rain = 0
KCL2 141332Z 07013KT 24/22 A3008 RMK A01 T02410221  RH  088%=      5-min Rain = 0
KCL2 141333Z 08010KT 24/22 A3008 RMK A01 T02410220  RH  088%=      5-min Rain = 0
KCL2 141334Z 08011KT 24/22 A3008 RMK A01 T02420221  RH  088%=      5-min Rain = 0
KCL2 141335Z 08012KT 24/22 A3008 RMK A01 T02430221  RH  087%=      5-min Rain = 0
KCL2 141336Z 08012KT 24/22 A3008 RMK A01 T02430221  RH  087%=      5-min Rain = 0
KCL2 141337Z 08011KT 24/22 A3008 RMK A01 T02430220  RH  087%=      5-min Rain = 0
KCL2 141338Z 08010KT 24/22 A3008 RMK A01 T02430221  RH  087%=      5-min Rain = 0
KCL2 141339Z 08012KT 24/22 A3008 RMK A01 T02440221  RH  087%=      5-min Rain = 0
KCL2 141340Z 07013KT 25/22 A3008 RMK A01 T02450221  RH  086%=      5-min Rain = 0
KCL2 141341Z 08010KT 25/22 A3008 RMK A01 T02460221  RH  086%=      5-min Rain = 0
KCL2 141342Z 08011KT 25/22 A3008 RMK A01 T02470221  RH  086%=      5-min Rain = 0
KCL2 141343Z 08014KT 25/22 A3009 RMK A01 T02470221  RH  085%=      5-min Rain = 0
KCL2 141344Z 08013KT 25/22 A3008 RMK A01 T02470221  RH  085%=      5-min Rain = 0
KCL2 141345Z 08011KT 25/22 A3008 RMK A01 T02460220  RH  085%=      5-min Rain = 0
KCL2 141346Z 09008KT 25/22 A3008 RMK A01 T02470221  RH  085%=      5-min Rain = 0
KCL2 141347Z 08010KT 25/22 A3008 RMK A01 T02490222  RH  085%=      5-min Rain = 0
KCL2 141348Z 08010KT 25/22 A3008 RMK A01 T02500221  RH  084%=      5-min Rain = 0
KCL2 141349Z 09011KT 25/22 A3008 RMK A01 T02510222  RH  084%=      5-min Rain = 0
KCL2 141350Z 09012KT 25/22 A3008 RMK A01 T02520222  RH  083%=      5-min Rain = 0
KCL2 141351Z 09012KT 25/22 A3008 RMK A01 T02520221  RH  083%=      5-min Rain = 0
KCL2 141352Z 09011KT 25/22 A3009 RMK A01 T02530222  RH  083%=      5-min Rain = 0
KCL2 141353Z 08013KT 25/22 A3009 RMK A01 T02530222  RH  083%=      5-min Rain = 0
KCL2 141354Z 08012KT 25/22 A3009 RMK A01 T02540221  RH  082%=      5-min Rain = 0
KCL2 141355Z 07014KT 25/22 A3009 RMK A01 T02530221  RH  082%=      5-min Rain = 0
KCL2 141356Z 07012KT 25/22 A3009 RMK A01 T02520220  RH  083%=      5-min Rain = 0
KCL2 141357Z 08011KT 25/22 A3009 RMK A01 T02520221  RH  083%=      5-min Rain = 0
KCL2 141358Z 08011KT 25/22 A3009 RMK A01 T02530221  RH  082%=      5-min Rain = 0
KCL2 141359Z 07010KT 25/22 A3009 RMK A01 T02530221  RH  083%=      5-min Rain = 0
KCL2 141400Z 08010KT 25/22 A3009 RMK A01 T02540221  RH  082%=      5-min Rain = 0
KCL2 141401Z 08012KT 26/22 A301 RMK A01 T02550221  RH  081%=      5-min Rain = 0
KCL2 141402Z 09011KT 25/22 A301 RMK A01 T02540221  RH  082%=      5-min Rain = 0
KCL2 141403Z 08009KT 25/22 A301 RMK A01 T02540222  RH  082%=      5-min Rain = 0
KCL2 141404Z 08010KT 26/22 A301 RMK A01 T02550222  RH  082%=      5-min Rain = 0
KCL2 141405Z 07010KT 26/22 A301 RMK A01 T02570222  RH  081%=      5-min Rain = 0
KCL2 141406Z 07010KT 26/22 A301 RMK A01 T02570222  RH  081%=      5-min Rain = 0
KCL2 141407Z 07010KT 26/22 A301 RMK A01 T02570221  RH  081%=      5-min Rain = 0
KCL2 141408Z 07011KT 26/22 A301 RMK A01 T02560222  RH  081%=      5-min Rain = 0
KCL2 141409Z 07011KT 26/22 A301 RMK A01 T02570221  RH  081%=      5-min Rain = 0
KCL2 141410Z 06013KT 26/22 A3011 RMK A01 T02570221  RH  081%=      5-min Rain = 0
KCL2 141411Z 06014KT 26/22 A3011 RMK A01 T02570221  RH  080%=      5-min Rain = 0
KCL2 141412Z 06012KT 26/22 A3011 RMK A01 T02570221  RH  081%=      5-min Rain = 0
KCL2 141413Z 07012KT 26/22 A3011 RMK A01 T02580221  RH  080%=      5-min Rain = 0
KCL2 141414Z 07011G16KT 26/22 A3011 RMK A01 T02580221  RH  080%=      5-min Rain = 0
KCL2 141415Z 08012KT 26/22 A3011 RMK A01 T02580220  RH  080%=      5-min Rain = 0
KCL2 141416Z 07011KT 26/22 A3011 RMK A01 T02570221  RH  080%=      5-min Rain = 0
KCL2 141417Z 07010KT 26/22 A3011 RMK A01 T02570221  RH  080%=      5-min Rain = 0
KCL2 141418Z 07012KT 26/22 A3011 RMK A01 T02590221  RH  080%=      5-min Rain = 0
KCL2 141419Z 08013KT 26/22 A3011 RMK A01 T02600220  RH  079%=      5-min Rain = 0
KCL2 141420Z 08011KT 26/22 A3011 RMK A01 T02590220  RH  079%=      5-min Rain = 0
KCL2 141421Z 09011KT 26/22 A3011 RMK A01 T02580220  RH  080%=      5-min Rain = 0
KCL2 141422Z 07009KT 26/22 A3011 RMK A01 T02580221  RH  080%=      5-min Rain = 0
KCL2 141423Z 06010KT 26/22 A3011 RMK A01 T02590221  RH  079%=      5-min Rain = 0
KCL2 141424Z 07011KT 26/22 A3011 RMK A01 T02610221  RH  079%=      5-min Rain = 0
KCL2 141425Z 06013KT 26/22 A3011 RMK A01 T02610220  RH  078%=      5-min Rain = 0
KCL2 141426Z 06012KT 26/22 A3011 RMK A01 T02610220  RH  078%=      5-min Rain = 0
KCL2 141427Z 06012KT 26/22 A3011 RMK A01 T02610221  RH  078%=      5-min Rain = 0
KCL2 141428Z 06012KT 26/22 A3011 RMK A01 T02620220  RH  078%=      5-min Rain = 0
KCL2 141429Z 06013KT 26/22 A3011 RMK A01 T02630220  RH  077%=      5-min Rain = 0
KCL2 141430Z 07010KT 26/22 A3011 RMK A01 T02630221  RH  077%=      5-min Rain = 0
KCL2 141431Z 08010KT 27/22 A3011 RMK A01 T02650220  RH  076%=      5-min Rain = 0
KCL2 141432Z 09012KT 27/22 A3011 RMK A01 T02650220  RH  076%=      5-min Rain = 0
KCL2 141433Z 08009KT 27/22 A3011 RMK A01 T02650221  RH  077%=      5-min Rain = 0
KCL2 141434Z 08008KT 27/22 A3011 RMK A01 T02650222  RH  077%=      5-min Rain = 0
KCL2 141435Z 07010KT 27/22 A3011 RMK A01 T02650221  RH  077%=      5-min Rain = 0
KCL2 141436Z 06011KT 27/22 A3011 RMK A01 T02660221  RH  077%=      5-min Rain = 0
KCL2 141437Z 08012KT 27/22 A3011 RMK A01 T02660221  RH  076%=      5-min Rain = 0
KCL2 141438Z 09011KT 27/22 A3011 RMK A01 T02650220  RH  076%=      5-min Rain = 0
KCL2 141439Z 09012KT 26/22 A3011 RMK A01 T02640219  RH  076%=      5-min Rain = 0
KCL2 141440Z 08010KT 26/22 A3011 RMK A01 T02640220  RH  077%=      5-min Rain = 0
KCL2 141441Z 08009KT 26/22 A3011 RMK A01 T02630221  RH  077%=      5-min Rain = 0
KCL2 141442Z 07010KT 26/22 A3011 RMK A01 T02640220  RH  077%=      5-min Rain = 0
KCL2 141443Z 07014KT 27/22 A3011 RMK A01 T02650220  RH  076%=      5-min Rain = 0
KCL2 141444Z 07013KT 26/22 A3011 RMK A01 T02640219  RH  076%=      5-min Rain = 0
KCL2 141445Z 07010KT 26/22 A3011 RMK A01 T02630220  RH  077%=      5-min Rain = 0
KCL2 141446Z 07012KT 26/22 A3011 RMK A01 T02640220  RH  077%=      5-min Rain = 0
KCL2 141447Z 07010KT 26/22 A3011 RMK A01 T02640219  RH  076%=      5-min Rain = 0
KCL2 141448Z 07010KT 27/22 A3011 RMK A01 T02650220  RH  076%=      5-min Rain = 0
KCL2 141449Z 07009KT 27/22 A3011 RMK A01 T02660220  RH  076%=      5-min Rain = 0
KCL2 141450Z 07012KT 27/22 A3011 RMK A01 T02660220  RH  076%=      5-min Rain = 0
KCL2 141451Z 07012KT 27/22 A3011 RMK A01 T02660220  RH  076%=      5-min Rain = 0
KCL2 141452Z 07011KT 27/22 A3011 RMK A01 T02670220  RH  076%=      5-min Rain = 0
KCL2 141453Z 07011KT 27/22 A3011 RMK A01 T02660220  RH  076%=      5-min Rain = 0
KCL2 141454Z 06010KT 27/22 A3011 RMK A01 T02660220  RH  076%=      5-min Rain = 0
KCL2 141455Z 07012KT 27/22 A3011 RMK A01 T02680220  RH  075%=      5-min Rain = 0
KCL2 141456Z 07012KT 27/22 A3012 RMK A01 T02690219  RH  074%=      5-min Rain = 0
KCL2 141457Z 07012KT 27/22 A3012 RMK A01 T02690220  RH  075%=      5-min Rain = 0
KCL2 141458Z 07010KT 27/22 A3012 RMK A01 T02680220  RH  075%=      5-min Rain = 0
KCL2 141459Z 08011KT 27/22 A3012 RMK A01 T02680219  RH  075%=      5-min Rain = 0
KCL2 141500Z 08010KT 27/22 A3012 RMK A01 T02680221  RH  075%=      5-min Rain = 0
KCL2 141501Z 08008KT 27/22 A3012 RMK A01 T02680221  RH  075%=      5-min Rain = 0
KCL2 141502Z 07010KT 27/22 A3012 RMK A01 T02700221  RH  075%=      5-min Rain = 0
KCL2 141503Z 08008KT 27/22 A3012 RMK A01 T02710221  RH  074%=      5-min Rain = 0
KCL2 141504Z 09009KT 27/22 A3012 RMK A01 T02720221  RH  074%=      5-min Rain = 0
KCL2 141505Z 09011KT 28/22 A3012 RMK A01 T02750222  RH  073%=      5-min Rain = 0
KCL2 141506Z 09011KT 28/22 A3012 RMK A01 T02770222  RH  072%=      5-min Rain = 0
KCL2 141507Z 07012KT 28/22 A3012 RMK A01 T02770222  RH  072%=      5-min Rain = 0
KCL2 141508Z 08010KT 28/22 A3012 RMK A01 T02750221  RH  072%=      5-min Rain = 0
KCL2 141509Z 06010KT 27/22 A3012 RMK A01 T02730221  RH  073%=      5-min Rain = 0
KCL2 141510Z 06010KT 27/22 A3012 RMK A01 T02730221  RH  073%=      5-min Rain = 0
KCL2 141511Z 07008KT 28/22 A3012 RMK A01 T02750222  RH  073%=      5-min Rain = 0
KCL2 141512Z 07010KT 28/22 A3012 RMK A01 T02780223  RH  072%=      5-min Rain = 0
KCL2 141513Z 07011KT 28/22 A3012 RMK A01 T02790222  RH  071%=      5-min Rain = 0
KCL2 141514Z 06011KT 28/22 A3012 RMK A01 T02780222  RH  071%=      5-min Rain = 0
KCL2 141515Z 06010KT 28/22 A3012 RMK A01 T02760222  RH  072%=      5-min Rain = 0
KCL2 141516Z 07013KT 28/22 A3012 RMK A01 T02770222  RH  072%=      5-min Rain = 0
KCL2 141517Z 07010KT 28/22 A3012 RMK A01 T02780221  RH  071%=      5-min Rain = 0
KCL2 141518Z 08009KT 28/22 A3012 RMK A01 T02770222  RH  072%=      5-min Rain = 0
KCL2 141519Z 08009KT 28/22 A3012 RMK A01 T02770221  RH  072%=      5-min Rain = 0
KCL2 141520Z 09010KT 28/22 A3012 RMK A01 T02780221  RH  071%=      5-min Rain = 0
KCL2 141521Z 08011KT 28/22 A3012 RMK A01 T02800221  RH  071%=      5-min Rain = 0
KCL2 141522Z 09012G17KT 28/22 A3012 RMK A01 T02810221  RH  070%=      5-min Rain = 0
KCL2 141523Z 08012KT 28/22 A3012 RMK A01 T02820221  RH  069%=      5-min Rain = 0
KCL2 141524Z 09010KT 28/22 A3012 RMK A01 T02810222  RH  070%=      5-min Rain = 0
KCL2 141525Z 09012KT 28/22 A3012 RMK A01 T02800223  RH  071%=      5-min Rain = 0
KCL2 141526Z 09011KT 28/22 A3012 RMK A01 T02810222  RH  070%=      5-min Rain = 0
KCL2 141527Z 08008KT 28/22 A3012 RMK A01 T02820222  RH  070%=      5-min Rain = 0
KCL2 141528Z 06011KT 28/22 A3012 RMK A01 T02820222  RH  070%=      5-min Rain = 0
KCL2 141529Z 07010KT 28/22 A3012 RMK A01 T02840222  RH  069%=      5-min Rain = 0
KCL2 141530Z 07011KT 28/22 A3012 RMK A01 T02840222  RH  069%=      5-min Rain = 0
KCL2 141531Z 07010KT 28/22 A3013 RMK A01 T02840222  RH  069%=      5-min Rain = 0
KCL2 141532Z 07010KT 28/22 A3012 RMK A01 T02840223  RH  070%=      5-min Rain = 0
KCL2 141533Z 08010KT 29/22 A3013 RMK A01 T02870222  RH  068%=      5-min Rain = 0
KCL2 141534Z 08010KT 29/22 A3013 RMK A01 T02870223  RH  068%=      5-min Rain = 0
KCL2 141535Z 08010KT 29/22 A3013 RMK A01 T02860223  RH  069%=      5-min Rain = 0
KCL2 141536Z 08010KT 29/22 A3013 RMK A01 T02860221  RH  068%=      5-min Rain = 0
KCL2 141537Z 07010KT 29/22 A3013 RMK A01 T02860222  RH  068%=      5-min Rain = 0
KCL2 141538Z 06010KT 29/22 A3013 RMK A01 T02850221  RH  068%=      5-min Rain = 0
KCL2 141539Z 06011KT 29/22 A3012 RMK A01 T02850222  RH  069%=      5-min Rain = 0
KCL2 141540Z 07009KT 29/22 A3013 RMK A01 T02850222  RH  068%=      5-min Rain = 0
KCL2 141541Z 07008KT 29/22 A3013 RMK A01 T02850222  RH  069%=      5-min Rain = 0
KCL2 141542Z 07011KT 29/22 A3013 RMK A01 T02860221  RH  068%=      5-min Rain = 0
KCL2 141543Z 08011KT 29/22 A3012 RMK A01 T02860220  RH  067%=      5-min Rain = 0
KCL2 141544Z 09010KT 29/22 A3013 RMK A01 T02860218  RH  066%=      5-min Rain = 0
KCL2 141545Z 08009KT 29/22 A3013 RMK A01 T02850218  RH  067%=      5-min Rain = 0
KCL2 141546Z 09007KT 29/22 A3012 RMK A01 T02850220  RH  068%=      5-min Rain = 0
KCL2 141547Z 09009KT 29/22 A3013 RMK A01 T02870221  RH  067%=      5-min Rain = 0
KCL2 141548Z 07007KT 29/22 A3012 RMK A01 T02890222  RH  067%=      5-min Rain = 0
KCL2 141549Z 07009KT 29/22 A3013 RMK A01 T02910222  RH  066%=      5-min Rain = 0
KCL2 141550Z 05009KT 29/22 A3012 RMK A01 T02890222  RH  067%=      5-min Rain = 0
KCL2 141551Z 07011KT 29/22 A3012 RMK A01 T02890222  RH  067%=      5-min Rain = 0
KCL2 141552Z 08009KT 29/22 A3012 RMK A01 T02900221  RH  066%=      5-min Rain = 0
KCL2 141553Z 07008KT 29/22 A3012 RMK A01 T02890219  RH  066%=      5-min Rain = 0
KCL2 141554Z 08006KT 29/22 A3012 RMK A01 T02870219  RH  067%=      5-min Rain = 0
KCL2 141555Z 10003KT 29/22 A3012 RMK A01 T02880221  RH  067%=      5-min Rain = 0
KCL2 141556Z 10004KT 29/22 A3012 RMK A01 T02920222  RH  066%=      5-min Rain = 0
KCL2 141557Z 11005KT 29/22 A3012 RMK A01 T02940222  RH  065%=      5-min Rain = 0
KCL2 141558Z 09010KT 29/22 A3013 RMK A01 T02940223  RH  066%=      5-min Rain = 0
KCL2 141559Z 09010KT 29/22 A3013 RMK A01 T02940223  RH  065%=      5-min Rain = 0
KCL2 141600Z 08008KT 29/22 A3013 RMK A01 T02930222  RH  066%=      5-min Rain = 0
KCL2 141601Z 08009KT 29/22 A3013 RMK A01 T02930221  RH  065%=      5-min Rain = 0
KCL2 141602Z 08006KT 29/22 A3013 RMK A01 T02900220  RH  066%=      5-min Rain = 0
KCL2 141603Z 06008KT 29/22 A3013 RMK A01 T02890220  RH  066%=      5-min Rain = 0
KCL2 141604Z 06006KT 29/22 A3013 RMK A01 T02890219  RH  066%=      5-min Rain = 0
KCL2 141605Z 06005KT 29/22 A3013 RMK A01 T02880220  RH  067%=      5-min Rain = 0
KCL2 141606Z 08008KT 29/22 A3013 RMK A01 T02890219  RH  066%=      5-min Rain = 0
KCL2 141607Z 08009KT 29/22 A3013 RMK A01 T02900217  RH  065%=      5-min Rain = 0
KCL2 141608Z 08006KT 29/22 A3013 RMK A01 T02900217  RH  064%=      5-min Rain = 0
KCL2 141609Z 08006KT 29/22 A3013 RMK A01 T02910220  RH  065%=      5-min Rain = 0
KCL2 141610Z 09004KT 29/22 A3013 RMK A01 T02910219  RH  065%=      5-min Rain = 0
KCL2 141611Z 09006KT 29/22 A3013 RMK A01 T02890220  RH  066%=      5-min Rain = 0
KCL2 141612Z 06005KT 29/22 A3013 RMK A01 T02900218  RH  065%=      5-min Rain = 0
KCL2 141613Z 08004KT 29/22 A3013 RMK A01 T02910218  RH  065%=      5-min Rain = 0
KCL2 141614Z 10006KT 29/22 A3012 RMK A01 T02920220  RH  065%=      5-min Rain = 0
KCL2 141615Z 08005KT 29/22 A3012 RMK A01 T02940219  RH  064%=      5-min Rain = 0
KCL2 141616Z 07006KT 29/22 A3012 RMK A01 T02940221  RH  065%=      5-min Rain = 0
KCL2 141617Z 06007KT 30/22 A3012 RMK A01 T02950222  RH  065%=      5-min Rain = 0
KCL2 141618Z 05007KT 30/22 A3012 RMK A01 T02970221  RH  064%=      5-min Rain = 0
KCL2 141619Z 04006KT 30/22 A3012 RMK A01 T02950220  RH  064%=      5-min Rain = 0
KCL2 141620Z 04005KT 29/22 A3012 RMK A01 T02930219  RH  064%=      5-min Rain = 0
KCL2 141621Z 07008KT 29/22 A3013 RMK A01 T02930220  RH  065%=      5-min Rain = 0
KCL2 141622Z 07008KT 29/22 A3013 RMK A01 T02940220  RH  064%=      5-min Rain = 0
KCL2 141623Z 08006KT 29/22 A3013 RMK A01 T02940219  RH  064%=      5-min Rain = 0
KCL2 141624Z 07005KT 30/22 A3013 RMK A01 T02950219  RH  064%=      5-min Rain = 0
KCL2 141625Z 06005KT 30/22 A3013 RMK A01 T02960220  RH  063%=      5-min Rain = 0
KCL2 141626Z 04003KT 30/22 A3013 RMK A01 T02960219  RH  063%=      5-min Rain = 0
KCL2 141627Z 05004KT 30/22 A3012 RMK A01 T02950220  RH  064%=      5-min Rain = 0
KCL2 141628Z 06005KT 30/22 A3012 RMK A01 T02950220  RH  064%=      5-min Rain = 0
KCL2 141629Z 05007KT 30/22 A3012 RMK A01 T02960221  RH  064%=      5-min Rain = 0
KCL2 141630Z 05006KT 30/22 A3012 RMK A01 T02980220  RH  063%=      5-min Rain = 0
KCL2 141631Z 04004KT 30/22 A3012 RMK A01 T02980219  RH  063%=      5-min Rain = 0
KCL2 141632Z 05002KT 30/22 A3012 RMK A01 T02980220  RH  063%=      5-min Rain = 0
KCL2 141633Z 03003KT 30/22 A3012 RMK A01 T02980218  RH  062%=      5-min Rain = 0
KCL2 141634Z 01004KT 30/22 A3012 RMK A01 T03000218  RH  062%=      5-min Rain = 0
KCL2 141635Z 03005KT 30/22 A3012 RMK A01 T03030220  RH  061%=      5-min Rain = 0
KCL2 141636Z 05005KT 30/22 A3012 RMK A01 T03030218  RH  060%=      5-min Rain = 0
KCL2 141637Z 04003KT 30/22 A3012 RMK A01 T03000218  RH  061%=      5-min Rain = 0
KCL2 141638Z 04002KT 30/22 A3012 RMK A01 T02990215  RH  061%=      5-min Rain = 0
KCL2 141639Z 02003G8KT 30/22 A3012 RMK A01 T03000219  RH  062%=      5-min Rain = 0
KCL2 141640Z 06007KT 30/22 A3012 RMK A01 T03030220  RH  061%=      5-min Rain = 0
KCL2 141641Z 08008KT 31/22 A3012 RMK A01 T03050218  RH  060%=      5-min Rain = 0
KCL2 141642Z 09005KT 30/22 A3012 RMK A01 T03040219  RH  060%=      5-min Rain = 0
KCL2 141643Z 09005KT 30/22 A3012 RMK A01 T03040217  RH  060%=      5-min Rain = 0
KCL2 141644Z 07006KT 30/22 A3012 RMK A01 T03030216  RH  060%=      5-min Rain = 0
KCL2 141645Z 08005KT 30/21 A3012 RMK A01 T03010213  RH  059%=      5-min Rain = 0
KCL2 141646Z 07002KT 30/21 A3012 RMK A01 T02980213  RH  061%=      5-min Rain = 0
KCL2 141647Z 11004KT 30/21 A3012 RMK A01 T02970214  RH  061%=      5-min Rain = 0
KCL2 141648Z 11004KT 30/22 A3012 RMK A01 T03000215  RH  060%=      5-min Rain = 0
KCL2 141649Z 11003KT 30/22 A3012 RMK A01 T03010215  RH  060%=      5-min Rain = 0
KCL2 141650Z 09002KT 30/22 A3012 RMK A01 T03010216  RH  060%=      5-min Rain = 0
KCL2 141651Z 09003G8KT 30/22 A3012 RMK A01 T03010217  RH  061%=      5-min Rain = 0
KCL2 141652Z 04008KT 30/22 A3012 RMK A01 T03030219  RH  061%=      5-min Rain = 0
KCL2 141653Z 04004KT 31/22 A3012 RMK A01 T03050218  RH  060%=      5-min Rain = 0
KCL2 141654Z 07007KT 31/22 A3012 RMK A01 T03060218  RH  059%=      5-min Rain = 0
KCL2 141655Z 07009KT 31/22 A3012 RMK A01 T03080217  RH  059%=      5-min Rain = 0
KCL2 141656Z 09005KT 31/22 A3012 RMK A01 T03080216  RH  058%=      5-min Rain = 0
KCL2 141657Z 07007KT 31/22 A3012 RMK A01 T03060217  RH  059%=      5-min Rain = 0
KCL2 141658Z 07006KT 31/22 A3012 RMK A01 T03080217  RH  058%=      5-min Rain = 0
KCL2 141659Z 07006KT 31/22 A3012 RMK A01 T03100217  RH  058%=      5-min Rain = 0
KCL2 141700Z 07005KT 31/22 A3012 RMK A01 T03080215  RH  058%=      5-min Rain = 0
KCL2 141701Z 07004KT 31/21 A3012 RMK A01 T03050214  RH  058%=      5-min Rain = 0
KCL2 141702Z 07004KT 30/21 A3012 RMK A01 T03030213  RH  059%=      5-min Rain = 0
KCL2 141703Z 04003KT 30/22 A3012 RMK A01 T03020216  RH  060%=      5-min Rain = 0
KCL2 141704Z 05002KT 30/22 A3012 RMK A01 T03010216  RH  061%=      5-min Rain = 0
KCL2 141705Z 09002KT 30/22 A3012 RMK A01 T02990216  RH  061%=      5-min Rain = 0
KCL2 141706Z 05005KT 30/22 A3012 RMK A01 T03000216  RH  061%=      5-min Rain = 0
KCL2 141707Z 01004KT 30/22 A3012 RMK A01 T03010218  RH  061%=      5-min Rain = 0
KCL2 141708Z 03003KT 31/22 A3012 RMK A01 T03050219  RH  060%=      5-min Rain = 0
KCL2 141709Z 05002KT 31/22 A3012 RMK A01 T03070219  RH  059%=      5-min Rain = 0
KCL2 141710Z 08005KT 31/22 A3012 RMK A01 T03100219  RH  058%=      5-min Rain = 0
KCL2 141711Z 07004KT 31/22 A3012 RMK A01 T03120217  RH  057%=      5-min Rain = 0
KCL2 141712Z 08004KT 31/22 A3012 RMK A01 T03120216  RH  057%=      5-min Rain = 0
KCL2 141713Z 09002KT 31/22 A3012 RMK A01 T03110217  RH  057%=      5-min Rain = 0
KCL2 141714Z 06004KT 31/22 A3012 RMK A01 T03130217  RH  057%=      5-min Rain = 0
KCL2 141715Z 06007KT 32/22 A3012 RMK A01 T03150216  RH  056%=      5-min Rain = 0
KCL2 141716Z 07007KT 32/22 A3012 RMK A01 T03160215  RH  055%=      5-min Rain = 0
KCL2 141717Z 08008KT 32/21 A3012 RMK A01 T03160212  RH  054%=      5-min Rain = 0
KCL2 141718Z 07006KT 32/21 A3012 RMK A01 T03150211  RH  054%=      5-min Rain = 0
KCL2 141719Z 07005KT 31/21 A3012 RMK A01 T03120211  RH  055%=      5-min Rain = 0
KCL2 141720Z 12005KT 31/21 A3012 RMK A01 T03090212  RH  056%=      5-min Rain = 0
KCL2 141721Z 14006KT 31/22 A3012 RMK A01 T03080217  RH  058%=      5-min Rain = 0
KCL2 141722Z 12004KT 31/21 A3012 RMK A01 T03080214  RH  057%=      5-min Rain = 0
KCL2 141723Z 10003KT 31/21 A3012 RMK A01 T03100214  RH  057%=      5-min Rain = 0
KCL2 141724Z 06002KT 31/22 A3012 RMK A01 T03110215  RH  057%=      5-min Rain = 0
KCL2 141725Z 04006KT 31/21 A3012 RMK A01 T03110212  RH  056%=      5-min Rain = 0
KCL2 141726Z 02004KT 31/21 A3012 RMK A01 T03110212  RH  056%=      5-min Rain = 0
KCL2 141727Z 01004KT 31/21 A3012 RMK A01 T03110213  RH  056%=      5-min Rain = 0
KCL2 141728Z 05004KT 31/22 A3012 RMK A01 T03110216  RH  057%=      5-min Rain = 0
KCL2 141729Z 07006KT 31/22 A3012 RMK A01 T03140215  RH  056%=      5-min Rain = 0
KCL2 141730Z 06002KT 31/22 A3012 RMK A01 T03120215  RH  056%=      5-min Rain = 0
KCL2 141731Z 09004KT 31/22 A3012 RMK A01 T03120216  RH  057%=      5-min Rain = 0
KCL2 141732Z 07004KT 31/22 A3012 RMK A01 T03140216  RH  056%=      5-min Rain = 0
KCL2 141733Z 07002KT 31/22 A3012 RMK A01 T03140217  RH  056%=      5-min Rain = 0
KCL2 141734Z 11003KT 31/22 A3012 RMK A01 T03140218  RH  057%=      5-min Rain = 0
KCL2 141735Z 12006KT 32/22 A3012 RMK A01 T03150217  RH  056%=      5-min Rain = 0
KCL2 141736Z 12004KT 32/22 A3012 RMK A01 T03150216  RH  056%=      5-min Rain = 0
KCL2 141737Z 14004KT 31/22 A3012 RMK A01 T03140219  RH  057%=      5-min Rain = 0
KCL2 141738Z 12005KT 32/22 A3012 RMK A01 T03160216  RH  055%=      5-min Rain = 0
KCL2 141739Z 09003KT 32/22 A3011 RMK A01 T03170218  RH  056%=      5-min Rain = 0
KCL2 141740Z 08007KT 32/22 A3012 RMK A01 T03200215  RH  054%=      5-min Rain = 0
KCL2 141741Z 09008KT 32/21 A3012 RMK A01 T03220210  RH  052%=      5-min Rain = 0
KCL2 141742Z 09006KT 32/21 A3011 RMK A01 T03220212  RH  052%=      5-min Rain = 0
KCL2 141743Z 07009KT 32/21 A3012 RMK A01 T03210211  RH  052%=      5-min Rain = 0
KCL2 141744Z 07009KT 32/21 A3012 RMK A01 T03210213  RH  053%=      5-min Rain = 0
KCL2 141745Z 08006KT 32/21 A3012 RMK A01 T03210214  RH  053%=      5-min Rain = 0
KCL2 141746Z 08008KT 32/22 A3011 RMK A01 T03200216  RH  054%=      5-min Rain = 0
KCL2 141747Z 07007KT 32/21 A3011 RMK A01 T03210214  RH  053%=      5-min Rain = 0
KCL2 141748Z 07007KT 32/22 A3012 RMK A01 T03210215  RH  053%=      5-min Rain = 0
KCL2 141749Z 09004KT 32/22 A3011 RMK A01 T03170215  RH  055%=      5-min Rain = 0
KCL2 141750Z 08004KT 32/21 A3011 RMK A01 T03150213  RH  055%=      5-min Rain = 0
KCL2 141751Z 11002KT 31/22 A3011 RMK A01 T03130215  RH  056%=      5-min Rain = 0
KCL2 141752Z 16003KT 31/21 A3011 RMK A01 T03140214  RH  055%=      5-min Rain = 0
KCL2 141753Z 12003KT 32/22 A3011 RMK A01 T03170216  RH  055%=      5-min Rain = 0
KCL2 141754Z 08008KT 32/22 A3011 RMK A01 T03200215  RH  054%=      5-min Rain = 0
KCL2 141755Z 07008KT 32/21 A3011 RMK A01 T03230214  RH  053%=      5-min Rain = 0
KCL2 141756Z 07008KT 32/21 A3011 RMK A01 T03220214  RH  053%=      5-min Rain = 0
KCL2 141757Z 05008KT 32/22 A3011 RMK A01 T03220215  RH  053%=      5-min Rain = 0
KCL2 141758Z 06007KT 32/21 A3011 RMK A01 T03210214  RH  053%=      5-min Rain = 0
KCL2 141759Z 07006KT 32/21 A3011 RMK A01 T03210214  RH  053%=      5-min Rain = 0
KCL2 141800Z 06005KT 32/21 A3011 RMK A01 T03190213  RH  053%=      5-min Rain = 0
KCL2 141801Z 07004KT 32/21 A3011 RMK A01 T03190211  RH  053%=      5-min Rain = 0
KCL2 141802Z 05002KT 32/21 A3011 RMK A01 T03180211  RH  053%=      5-min Rain = 0
KCL2 141803Z 04004KT 32/21 A301 RMK A01 T03180212  RH  053%=      5-min Rain = 0
KCL2 141804Z 06005KT 32/21 A3011 RMK A01 T03210213  RH  053%=      5-min Rain = 0
KCL2 141805Z 06004KT 32/21 A3011 RMK A01 T03210212  RH  053%=      5-min Rain = 0
KCL2 141806Z 10004KT 32/21 A3011 RMK A01 T03200213  RH  053%=      5-min Rain = 0
KCL2 141807Z 13003KT 32/21 A301 RMK A01 T03190212  RH  053%=      5-min Rain = 0
KCL2 141808Z 14002KT 32/21 A301 RMK A01 T03190211  RH  053%=      5-min Rain = 0
KCL2 141809Z 16001KT 32/21 A301 RMK A01 T03190211  RH  053%=      5-min Rain = 0
KCL2 141810Z 12004KT 32/21 A301 RMK A01 T03200212  RH  053%=      5-min Rain = 0
KCL2 141811Z 08006KT 32/21 A301 RMK A01 T03220213  RH  053%=      5-min Rain = 0
KCL2 141812Z 07008KT 33/21 A301 RMK A01 T03250213  RH  052%=      5-min Rain = 0
KCL2 141813Z 08008KT 33/21 A301 RMK A01 T03270210  RH  050%=      5-min Rain = 0
KCL2 141814Z 06010KT 33/21 A301 RMK A01 T03260214  RH  051%=      5-min Rain = 0
KCL2 141815Z 05004KT 33/21 A301 RMK A01 T03260211  RH  051%=      5-min Rain = 0
KCL2 141816Z 03001KT 32/21 A301 RMK A01 T03230214  RH  053%=      5-min Rain = 0
KCL2 141817Z 03003KT 32/21 A301 RMK A01 T03240211  RH  052%=      5-min Rain = 0
KCL2 141818Z 05006KT 32/21 A301 RMK A01 T03240211  RH  052%=      5-min Rain = 0
KCL2 141819Z 07007KT 32/21 A301 RMK A01 T03230210  RH  052%=      5-min Rain = 0
KCL2 141820Z 05006KT 32/21 A301 RMK A01 T03220210  RH  051%=      5-min Rain = 0
KCL2 141821Z 06006KT 32/21 A301 RMK A01 T03210210  RH  052%=      5-min Rain = 0
KCL2 141822Z 04008KT 33/21 A301 RMK A01 T03250212  RH  051%=      5-min Rain = 0
KCL2 141823Z 04007KT 33/21 A301 RMK A01 T03300208  RH  049%=      5-min Rain = 0
KCL2 141824Z 06004KT 33/21 A301 RMK A01 T03290208  RH  049%=      5-min Rain = 0
KCL2 141825Z 04004KT 33/21 A301 RMK A01 T03270208  RH  050%=      5-min Rain = 0
KCL2 141826Z 04003KT 33/21 A301 RMK A01 T03260208  RH  050%=      5-min Rain = 0
KCL2 141827Z 09003KT 32/21 A301 RMK A01 T03240208  RH  050%=      5-min Rain = 0
KCL2 141828Z 11003KT 32/21 A301 RMK A01 T03240208  RH  051%=      5-min Rain = 0
KCL2 141829Z 14002KT 32/21 A3009 RMK A01 T03230207  RH  050%=      5-min Rain = 0
KCL2 141830Z 11002KT 32/21 A3009 RMK A01 T03220207  RH  051%=      5-min Rain = 0
KCL2 141831Z 07005KT 32/21 A301 RMK A01 T03230208  RH  051%=      5-min Rain = 0
KCL2 141832Z 08006KT 32/21 A301 RMK A01 T03240207  RH  050%=      5-min Rain = 0
KCL2 141833Z 06007KT 33/21 A3009 RMK A01 T03270208  RH  050%=      5-min Rain = 0
KCL2 141834Z 08005KT 33/21 A3009 RMK A01 T03290206  RH  048%=      5-min Rain = 0
KCL2 141835Z 10008KT 33/21 A3009 RMK A01 T03300206  RH  048%=      5-min Rain = 0
KCL2 141836Z 10006KT 33/21 A3009 RMK A01 T03310206  RH  048%=      5-min Rain = 0
KCL2 141837Z 10004KT 33/21 A3009 RMK A01 T03310205  RH  048%=      5-min Rain = 0
KCL2 141838Z 08004KT 33/20 A3009 RMK A01 T03310204  RH  047%=      5-min Rain = 0
KCL2 141839Z 06006KT 33/21 A3009 RMK A01 T03300205  RH  048%=      5-min Rain = 0
KCL2 141840Z 04006KT 33/21 A3009 RMK A01 T03310205  RH  048%=      5-min Rain = 0
KCL2 141841Z 05009G15KT 33/21 A3009 RMK A01 T03310207  RH  048%=      5-min Rain = 0
KCL2 141842Z 05011KT 33/21 A3009 RMK A01 T03340209  RH  048%=      5-min Rain = 0
KCL2 141843Z 03008KT 34/21 A3009 RMK A01 T03360207  RH  047%=      5-min Rain = 0
KCL2 141844Z 04007KT 34/21 A3009 RMK A01 T03350206  RH  047%=      5-min Rain = 0
KCL2 141845Z 04005KT 34/21 A3009 RMK A01 T03350205  RH  047%=      5-min Rain = 0
KCL2 141846Z 04004KT 34/21 A3009 RMK A01 T03360206  RH  047%=      5-min Rain = 0
KCL2 141847Z 06005KT 34/21 A3009 RMK A01 T03360207  RH  047%=      5-min Rain = 0
KCL2 141848Z 06008KT 33/21 A3009 RMK A01 T03340207  RH  047%=      5-min Rain = 0
KCL2 141849Z 06006KT 33/21 A3009 RMK A01 T03340207  RH  047%=      5-min Rain = 0
KCL2 141850Z 05007KT 33/21 A3009 RMK A01 T03340209  RH  048%=      5-min Rain = 0
KCL2 141851Z 02003KT 34/21 A3009 RMK A01 T03350209  RH  048%=      5-min Rain = 0
KCL2 141852Z 04002KT 34/21 A3009 RMK A01 T03360206  RH  047%=      5-min Rain = 0
KCL2 141853Z 05005KT 34/21 A3009 RMK A01 T03360208  RH  047%=      5-min Rain = 0
KCL2 141854Z 05006KT 34/21 A3008 RMK A01 T03360210  RH  048%=      5-min Rain = 0
KCL2 141855Z 04008KT 34/21 A3008 RMK A01 T03380211  RH  047%=      5-min Rain = 0
KCL2 141856Z 06010KT 34/21 A3008 RMK A01 T03420207  RH  045%=      5-min Rain = 0
KCL2 141857Z 05009KT 34/21 A3008 RMK A01 T03390205  RH  046%=      5-min Rain = 0
KCL2 141858Z 06007KT 33/20 A3008 RMK A01 T03330204  RH  047%=      5-min Rain = 0
KCL2 141859Z 05011KT 33/21 A3008 RMK A01 T03310207  RH  048%=      5-min Rain = 0
KCL2 141900Z 03006KT 33/21 A3008 RMK A01 T03330212  RH  049%=      5-min Rain = 0
KCL2 141901Z 03006KT 34/21 A3008 RMK A01 T03370210  RH  047%=      5-min Rain = 0
KCL2 141902Z 06010KT 34/21 A3008 RMK A01 T03350207  RH  047%=      5-min Rain = 0
KCL2 141903Z 05011KT 33/21 A3008 RMK A01 T03320205  RH  047%=      5-min Rain = 0
KCL2 141904Z 05008KT 33/20 A3008 RMK A01 T03290203  RH  048%=      5-min Rain = 0
KCL2 141905Z 04006KT 33/20 A3008 RMK A01 T03280204  RH  048%=      5-min Rain = 0
KCL2 141906Z 05004G10KT 33/20 A3008 RMK A01 T03290204  RH  048%=      5-min Rain = 0
KCL2 141907Z 05006KT 33/21 A3008 RMK A01 T03310208  RH  048%=      5-min Rain = 0
KCL2 141908Z 04006KT 34/21 A3008 RMK A01 T03360210  RH  048%=      5-min Rain = 0
KCL2 141909Z 06006KT 34/21 A3008 RMK A01 T03420212  RH  047%=      5-min Rain = 0
KCL2 141910Z 07004KT 34/21 A3008 RMK A01 T03420208  RH  046%=      5-min Rain = 0
KCL2 141911Z 03008KT 34/21 A3008 RMK A01 T03400212  RH  047%=      5-min Rain = 0
KCL2 141912Z 05007KT 34/21 A3008 RMK A01 T03420211  RH  046%=      5-min Rain = 0
KCL2 141913Z 06005KT 34/21 A3007 RMK A01 T03420210  RH  046%=      5-min Rain = 0
KCL2 141914Z 03009KT 34/21 A3007 RMK A01 T03400211  RH  047%=      5-min Rain = 0
KCL2 141915Z 04012KT 34/21 A3008 RMK A01 T03380209  RH  047%=      5-min Rain = 0
KCL2 141916Z 04010KT 33/21 A3007 RMK A01 T03320206  RH  048%=      5-min Rain = 0
KCL2 141917Z 04010KT 33/21 A3007 RMK A01 T03320209  RH  049%=      5-min Rain = 0
KCL2 141918Z 04009KT 34/21 A3007 RMK A01 T03350209  RH  048%=      5-min Rain = 0
KCL2 141919Z 03007KT 34/21 A3007 RMK A01 T03380209  RH  047%=      5-min Rain = 0
KCL2 141920Z 05011KT 34/21 A3007 RMK A01 T03390207  RH  046%=      5-min Rain = 0
KCL2 141921Z 04009KT 34/21 A3007 RMK A01 T03380205  RH  046%=      5-min Rain = 0
KCL2 141922Z 03006KT 34/21 A3007 RMK A01 T03370206  RH  046%=      5-min Rain = 0
KCL2 141923Z 36004KT 34/21 A3007 RMK A01 T03370206  RH  046%=      5-min Rain = 0
KCL2 141924Z 04004KT 34/21 A3007 RMK A01 T03360206  RH  047%=      5-min Rain = 0
KCL2 141925Z 03008KT 34/21 A3007 RMK A01 T03400210  RH  047%=      5-min Rain = 0
KCL2 141926Z 04009G14KT 34/21 A3007 RMK A01 T03420208  RH  046%=      5-min Rain = 0
KCL2 141927Z 06012KT 34/21 A3007 RMK A01 T03410208  RH  046%=      5-min Rain = 0
KCL2 141928Z 06012KT 34/21 A3007 RMK A01 T03430208  RH  045%=      5-min Rain = 0
KCL2 141929Z 06011KT 35/21 A3007 RMK A01 T03460207  RH  044%=      5-min Rain = 0
KCL2 141930Z 05008KT 34/21 A3007 RMK A01 T03410205  RH  045%=      5-min Rain = 0
KCL2 141931Z 03009KT 34/21 A3007 RMK A01 T03380206  RH  046%=      5-min Rain = 0
KCL2 141932Z 02008KT 34/21 A3007 RMK A01 T03400209  RH  046%=      5-min Rain = 0
KCL2 141933Z 03010KT 35/21 A3007 RMK A01 T03450209  RH  045%=      5-min Rain = 0
KCL2 141934Z 03009KT 35/21 A3007 RMK A01 T03470207  RH  044%=      5-min Rain = 0
KCL2 141935Z 06007KT 35/21 A3007 RMK A01 T03460208  RH  044%=      5-min Rain = 0
KCL2 141936Z 07006KT 35/21 A3006 RMK A01 T03460208  RH  045%=      5-min Rain = 0
KCL2 141937Z 02005G11KT 35/21 A3006 RMK A01 T03460208  RH  045%=      5-min Rain = 0
KCL2 141938Z 02010KT 35/21 A3006 RMK A01 T03450208  RH  045%=      5-min Rain = 0
KCL2 141939Z 03008KT 34/21 A3006 RMK A01 T03440206  RH  045%=      5-min Rain = 0
KCL2 141940Z 03008KT 34/21 A3006 RMK A01 T03430208  RH  045%=      5-min Rain = 0
KCL2 141941Z 05011KT 35/21 A3006 RMK A01 T03450209  RH  045%=      5-min Rain = 0
KCL2 141942Z 05010KT 35/21 A3006 RMK A01 T03460206  RH  044%=      5-min Rain = 0
KCL2 141943Z 03009KT 34/21 A3006 RMK A01 T03430211  RH  046%=      5-min Rain = 0
KCL2 141944Z 02007KT 35/21 A3006 RMK A01 T03450209  RH  045%=      5-min Rain = 0
KCL2 141945Z 02006KT 35/21 A3006 RMK A01 T03450210  RH  045%=      5-min Rain = 0
KCL2 141946Z 03006KT 34/21 A3006 RMK A01 T03440209  RH  045%=      5-min Rain = 0
KCL2 141947Z 06014KT 34/21 A3006 RMK A01 T03440210  RH  046%=      5-min Rain = 0
KCL2 141948Z 06014KT 35/21 A3006 RMK A01 T03450209  RH  045%=      5-min Rain = 0
KCL2 141949Z 05014KT 34/21 A3006 RMK A01 T03430207  RH  045%=      5-min Rain = 0
KCL2 141950Z 05012KT 34/21 A3005 RMK A01 T03370205  RH  046%=      5-min Rain = 0
KCL2 141951Z 05009KT 33/21 A3005 RMK A01 T03320205  RH  048%=      5-min Rain = 0
KCL2 141952Z 04005KT 33/21 A3005 RMK A01 T03320207  RH  048%=      5-min Rain = 0
KCL2 141953Z 05004KT 34/21 A3005 RMK A01 T03350206  RH  047%=      5-min Rain = 0
KCL2 141954Z 06006KT 34/21 A3005 RMK A01 T03350207  RH  047%=      5-min Rain = 0
KCL2 141955Z 05012KT 34/21 A3005 RMK A01 T03380209  RH  047%=      5-min Rain = 0
KCL2 141956Z 05012KT 35/21 A3005 RMK A01 T03450209  RH  045%=      5-min Rain = 0
KCL2 141957Z 05012KT 35/21 A3005 RMK A01 T03490208  RH  044%=      5-min Rain = 0
KCL2 141958Z 05008KT 35/20 A3005 RMK A01 T03460203  RH  043%=      5-min Rain = 0
KCL2 141959Z 05008KT 34/21 A3005 RMK A01 T03410206  RH  045%=      5-min Rain = 0
KCL2 142000Z 05008KT 35/21 A3005 RMK A01 T03450208  RH  045%=      5-min Rain = 0
KCL2 142001Z 02009KT 35/21 A3005 RMK A01 T03470210  RH  045%=      5-min Rain = 0
KCL2 142002Z 03009KT 35/21 A3005 RMK A01 T03470208  RH  044%=      5-min Rain = 0
KCL2 142003Z 03008KT 35/21 A3005 RMK A01 T03460208  RH  045%=      5-min Rain = 0
KCL2 142004Z 02011KT 35/21 A3005 RMK A01 T03450208  RH  045%=      5-min Rain = 0
KCL2 142005Z 02012KT 35/21 A3005 RMK A01 T03460207  RH  044%=      5-min Rain = 0
KCL2 142006Z 02010KT 34/21 A3005 RMK A01 T03440208  RH  045%=      5-min Rain = 0
KCL2 142007Z 01007KT 34/21 A3005 RMK A01 T03420205  RH  045%=      5-min Rain = 0
KCL2 142008Z 36008KT 34/21 A3005 RMK A01 T03410206  RH  045%=      5-min Rain = 0
KCL2 142009Z 02007KT 34/20 A3005 RMK A01 T03420203  RH  044%=      5-min Rain = 0
KCL2 142010Z 04009KT 34/21 A3005 RMK A01 T03420206  RH  045%=      5-min Rain = 0
KCL2 142011Z 06008KT 34/21 A3005 RMK A01 T03420208  RH  046%=      5-min Rain = 0
KCL2 142012Z 06005KT 34/21 A3005 RMK A01 T03420210  RH  046%=      5-min Rain = 0
KCL2 142013Z 06011KT 34/21 A3005 RMK A01 T03420210  RH  046%=      5-min Rain = 0
KCL2 142014Z 05011KT 34/21 A3005 RMK A01 T03400208  RH  046%=      5-min Rain = 0
KCL2 142015Z 05012KT 34/21 A3005 RMK A01 T03350208  RH  047%=      5-min Rain = 0
KCL2 142016Z 05010KT 33/21 A3005 RMK A01 T03320207  RH  048%=      5-min Rain = 0
KCL2 142017Z 06011KT 33/21 A3005 RMK A01 T03300207  RH  048%=      5-min Rain = 0
KCL2 142018Z 05010KT 33/21 A3004 RMK A01 T03290206  RH  048%=      5-min Rain = 0
KCL2 142019Z 04011KT 33/21 A3004 RMK A01 T03320210  RH  049%=      5-min Rain = 0
KCL2 142020Z 05012KT 34/21 A3004 RMK A01 T03380209  RH  047%=      5-min Rain = 0
KCL2 142021Z 05014KT 34/21 A3004 RMK A01 T03420208  RH  046%=      5-min Rain = 0
KCL2 142022Z 05012KT 34/21 A3004 RMK A01 T03420207  RH  045%=      5-min Rain = 0
KCL2 142023Z 06009KT 34/21 A3004 RMK A01 T03390206  RH  046%=      5-min Rain = 0
KCL2 142024Z 09009KT 34/21 A3004 RMK A01 T03390206  RH  046%=      5-min Rain = 0
KCL2 142025Z 09007KT 34/21 A3004 RMK A01 T03400205  RH  045%=      5-min Rain = 0
KCL2 142026Z 05008KT 34/21 A3004 RMK A01 T03400208  RH  046%=      5-min Rain = 0
KCL2 142027Z 02011KT 35/21 A3004 RMK A01 T03460211  RH  045%=      5-min Rain = 0
KCL2 142028Z 03011KT 35/21 A3004 RMK A01 T03480210  RH  045%=      5-min Rain = 0
KCL2 142029Z 05014KT 35/21 A3004 RMK A01 T03490212  RH  045%=      5-min Rain = 0
KCL2 142030Z 06012KT 35/21 A3004 RMK A01 T03470209  RH  045%=      5-min Rain = 0
KCL2 142031Z 07013KT 35/21 A3004 RMK A01 T03450209  RH  045%=      5-min Rain = 0
KCL2 142032Z 07013KT 35/21 A3004 RMK A01 T03450209  RH  045%=      5-min Rain = 0
KCL2 142033Z 07012KT 34/21 A3004 RMK A01 T03440208  RH  045%=      5-min Rain = 0
KCL2 142034Z 07010KT 34/21 A3004 RMK A01 T03410208  RH  046%=      5-min Rain = 0
KCL2 142035Z 08010KT 34/21 A3003 RMK A01 T03400206  RH  046%=      5-min Rain = 0
KCL2 142036Z 06007KT 34/21 A3003 RMK A01 T03390207  RH  046%=      5-min Rain = 0
KCL2 142037Z 07004KT 34/21 A3003 RMK A01 T03420210  RH  046%=      5-min Rain = 0
KCL2 142038Z 05004KT 34/21 A3003 RMK A01 T03430207  RH  045%=      5-min Rain = 0
KCL2 142039Z 07008KT 34/21 A3003 RMK A01 T03420213  RH  047%=      5-min Rain = 0
KCL2 142040Z 07011KT 35/21 A3003 RMK A01 T03470209  RH  044%=      5-min Rain = 0
KCL2 142041Z 06011KT 34/21 A3003 RMK A01 T03440207  RH  045%=      5-min Rain = 0
KCL2 142042Z 08013KT 34/21 A3003 RMK A01 T03410206  RH  045%=      5-min Rain = 0
KCL2 142043Z 09011KT 34/21 A3003 RMK A01 T03400205  RH  045%=      5-min Rain = 0
KCL2 142044Z 09009KT 34/21 A3003 RMK A01 T03390206  RH  046%=      5-min Rain = 0
KCL2 142045Z 09009KT 34/21 A3003 RMK A01 T03400206  RH  045%=      5-min Rain = 0
KCL2 142046Z 08007KT 34/21 A3003 RMK A01 T03410206  RH  045%=      5-min Rain = 0
KCL2 142047Z 07009KT 34/21 A3003 RMK A01 T03410206  RH  045%=      5-min Rain = 0
KCL2 142048Z 06009KT 34/21 A3003 RMK A01 T03410207  RH  046%=      5-min Rain = 0
KCL2 142049Z 07006KT 34/21 A3003 RMK A01 T03410207  RH  046%=      5-min Rain = 0
KCL2 142050Z 08005KT 34/21 A3003 RMK A01 T03390206  RH  046%=      5-min Rain = 0
KCL2 142051Z 04011G17KT 34/21 A3003 RMK A01 T03400210  RH  047%=      5-min Rain = 0
KCL2 142052Z 05013KT 35/21 A3003 RMK A01 T03480211  RH  045%=      5-min Rain = 0
KCL2 142053Z 05009KT 35/21 A3003 RMK A01 T03480210  RH  045%=      5-min Rain = 0
KCL2 142054Z 05011KT 35/21 A3003 RMK A01 T03470208  RH  044%=      5-min Rain = 0
KCL2 142055Z 03010KT 34/21 A3003 RMK A01 T03430207  RH  045%=      5-min Rain = 0
KCL2 142056Z 04012KT 34/21 A3003 RMK A01 T03420208  RH  045%=      5-min Rain = 0
KCL2 142057Z 04009KT 34/21 A3003 RMK A01 T03420206  RH  045%=      5-min Rain = 0
KCL2 142058Z 03007KT 34/21 A3003 RMK A01 T03410206  RH  045%=      5-min Rain = 0
KCL2 142059Z 03005KT 34/20 A3003 RMK A01 T03410203  RH  045%=      5-min Rain = 0
KCL2 142100Z 06007KT 34/21 A3003 RMK A01 T03390205  RH  046%=      5-min Rain = 0
KCL2 142101Z 06010KT 34/20 A3003 RMK A01 T03410203  RH  045%=      5-min Rain = 0
KCL2 142102Z 04011KT 34/20 A3003 RMK A01 T03440204  RH  044%=      5-min Rain = 0
KCL2 142103Z 04008KT 34/20 A3003 RMK A01 T03420203  RH  044%=      5-min Rain = 0
KCL2 142104Z 04010KT 34/20 A3003 RMK A01 T03400204  RH  045%=      5-min Rain = 0
KCL2 142105Z 04009KT 34/20 A3003 RMK A01 T03370201  RH  045%=      5-min Rain = 0
KCL2 142106Z 05008KT 33/20 A3003 RMK A01 T03340200  RH  045%=      5-min Rain = 0
KCL2 142107Z 05007KT 33/20 A3002 RMK A01 T03340203  RH  046%=      5-min Rain = 0
KCL2 142108Z 06012KT 34/20 A3002 RMK A01 T03420204  RH  045%=      5-min Rain = 0
KCL2 142109Z 05012KT 34/20 A3002 RMK A01 T03440201  RH  043%=      5-min Rain = 0
KCL2 142110Z 06011KT 34/20 A3002 RMK A01 T03440201  RH  043%=      5-min Rain = 0
KCL2 142111Z 05012KT 34/20 A3002 RMK A01 T03430201  RH  044%=      5-min Rain = 0
KCL2 142112Z 05009KT 34/20 A3002 RMK A01 T03410200  RH  044%=      5-min Rain = 0
KCL2 142113Z 04010KT 34/20 A3002 RMK A01 T03360198  RH  044%=      5-min Rain = 0
KCL2 142114Z 05010KT 34/20 A3002 RMK A01 T03350199  RH  045%=      5-min Rain = 0
KCL2 142115Z 05008KT 34/20 A3002 RMK A01 T03360197  RH  044%=      5-min Rain = 0
KCL2 142116Z 06007KT 34/20 A3002 RMK A01 T03370198  RH  044%=      5-min Rain = 0
KCL2 142117Z 06006KT 34/20 A3002 RMK A01 T03390198  RH  043%=      5-min Rain = 0
KCL2 142118Z 08008KT 34/20 A3002 RMK A01 T03410198  RH  043%=      5-min Rain = 0
KCL2 142119Z 09007KT 34/20 A3002 RMK A01 T03430201  RH  043%=      5-min Rain = 0
KCL2 142120Z 08004KT 35/20 A3002 RMK A01 T03450199  RH  043%=      5-min Rain = 0
KCL2 142121Z 07004KT 34/20 A3001 RMK A01 T03440202  RH  044%=      5-min Rain = 0
KCL2 142122Z 06007KT 34/20 A3001 RMK A01 T03440203  RH  044%=      5-min Rain = 0
KCL2 142123Z 06012G18KT 35/21 A3001 RMK A01 T03460206  RH  044%=      5-min Rain = 0
KCL2 142124Z 06012KT 35/21 A3001 RMK A01 T03460206  RH  044%=      5-min Rain = 0
KCL2 142125Z 05014KT 35/21 A3001 RMK A01 T03470207  RH  044%=      5-min Rain = 0
KCL2 142126Z 05011KT 35/21 A3001 RMK A01 T03460205  RH  044%=      5-min Rain = 0
KCL2 142127Z 05008KT 34/21 A3001 RMK A01 T03430206  RH  045%=      5-min Rain = 0
KCL2 142128Z 05009KT 34/21 A3001 RMK A01 T03430208  RH  045%=      5-min Rain = 0
KCL2 142129Z 07012KT 34/20 A3001 RMK A01 T03440204  RH  044%=      5-min Rain = 0
KCL2 142130Z 07011KT 34/20 A3001 RMK A01 T03440201  RH  043%=      5-min Rain = 0
KCL2 142131Z 07009KT 34/20 A3001 RMK A01 T03420201  RH  044%=      5-min Rain = 0
KCL2 142132Z 07008KT 34/20 A3001 RMK A01 T03420200  RH  044%=      5-min Rain = 0
KCL2 142133Z 06004KT 34/20 A3001 RMK A01 T03410200  RH  044%=      5-min Rain = 0
KCL2 142134Z 07004KT 34/20 A3001 RMK A01 T03380200  RH  044%=      5-min Rain = 0
KCL2 142135Z 06007KT 34/20 A3001 RMK A01 T03370202  RH  045%=      5-min Rain = 0
KCL2 142136Z 04007KT 34/20 A3002 RMK A01 T03410204  RH  045%=      5-min Rain = 0
KCL2 142137Z 06009KT 34/21 A3002 RMK A01 T03440205  RH  044%=      5-min Rain = 0
KCL2 142138Z 06010KT 35/20 A3002 RMK A01 T03460202  RH  043%=      5-min Rain = 0
KCL2 142139Z 07011KT 35/20 A3002 RMK A01 T03460201  RH  043%=      5-min Rain = 0
KCL2 142140Z 07008KT 34/20 A3002 RMK A01 T03440200  RH  043%=      5-min Rain = 0
KCL2 142141Z 06008KT 34/20 A3001 RMK A01 T03430202  RH  044%=      5-min Rain = 0
KCL2 142142Z 02011KT 35/21 A3002 RMK A01 T03460206  RH  044%=      5-min Rain = 0
KCL2 142143Z 03012KT 35/21 A3002 RMK A01 T03470208  RH  044%=      5-min Rain = 0
KCL2 142144Z 03010KT 35/21 A3002 RMK A01 T03470206  RH  044%=      5-min Rain = 0
KCL2 142145Z 02007KT 35/21 A3002 RMK A01 T03450206  RH  044%=      5-min Rain = 0
KCL2 142146Z 05009KT 34/21 A3002 RMK A01 T03440205  RH  044%=      5-min Rain = 0
KCL2 142147Z 06012KT 34/21 A3002 RMK A01 T03430205  RH  044%=      5-min Rain = 0
KCL2 142148Z 05012KT 34/20 A3002 RMK A01 T03430203  RH  044%=      5-min Rain = 0
KCL2 142149Z 04011KT 34/21 A3002 RMK A01 T03440205  RH  044%=      5-min Rain = 0
KCL2 142150Z 03009KT 34/20 A3002 RMK A01 T03440204  RH  044%=      5-min Rain = 0
KCL2 142151Z 05007KT 34/20 A3002 RMK A01 T03430204  RH  044%=      5-min Rain = 0
KCL2 142152Z 02006KT 34/21 A3001 RMK A01 T03430205  RH  044%=      5-min Rain = 0
KCL2 142153Z 04011KT 35/21 A3002 RMK A01 T03450205  RH  044%=      5-min Rain = 0
KCL2 142154Z 03011KT 35/20 A3002 RMK A01 T03460204  RH  044%=      5-min Rain = 0
KCL2 142155Z 03010KT 34/20 A3002 RMK A01 T03440204  RH  044%=      5-min Rain = 0
KCL2 142156Z 04010KT 34/20 A3002 RMK A01 T03440204  RH  044%=      5-min Rain = 0
KCL2 142157Z 05011KT 34/20 A3002 RMK A01 T03440203  RH  044%=      5-min Rain = 0
KCL2 142158Z 03009KT 34/20 A3002 RMK A01 T03440203  RH  044%=      5-min Rain = 0
KCL2 142159Z 02006KT 34/20 A3002 RMK A01 T03440203  RH  044%=      5-min Rain = 0
KCL2 142200Z 02006KT 34/21 A3002 RMK A01 T03440206  RH  044%=      5-min Rain = 0
KCL2 142201Z 03008KT 35/20 A3002 RMK A01 T03450204  RH  044%=      5-min Rain = 0
KCL2 142202Z 04006KT 35/21 A3002 RMK A01 T03450206  RH  044%=      5-min Rain = 0
KCL2 142203Z 05008KT 35/20 A3002 RMK A01 T03480204  RH  043%=      5-min Rain = 0
KCL2 142204Z 07005KT 34/20 A3002 RMK A01 T03440199  RH  043%=      5-min Rain = 0
KCL2 142205Z 06006KT 34/20 A3002 RMK A01 T03410200  RH  044%=      5-min Rain = 0
KCL2 142206Z 04004KT 34/20 A3001 RMK A01 T03410201  RH  044%=      5-min Rain = 0
KCL2 142207Z 02007KT 34/20 A3001 RMK A01 T03420201  RH  043%=      5-min Rain = 0
KCL2 142208Z 03007KT 34/20 A3001 RMK A01 T03440202  RH  044%=      5-min Rain = 0
KCL2 142209Z 04007KT 35/20 A3001 RMK A01 T03460203  RH  043%=      5-min Rain = 0
KCL2 142210Z 05008KT 35/20 A3001 RMK A01 T03460202  RH  043%=      5-min Rain = 0
KCL2 142211Z 04006KT 35/20 A3001 RMK A01 T03460201  RH  043%=      5-min Rain = 0
KCL2 142212Z 01005KT 35/20 A3001 RMK A01 T03450204  RH  044%=      5-min Rain = 0
KCL2 142213Z 01004KT 35/20 A3001 RMK A01 T03470202  RH  043%=      5-min Rain = 0
KCL2 142214Z 02003KT 35/20 A3001 RMK A01 T03470203  RH  043%=      5-min Rain = 0
KCL2 142215Z 04006KT 35/20 A3001 RMK A01 T03460202  RH  043%=      5-min Rain = 0
KCL2 142216Z 07009KT 35/20 A3001 RMK A01 T03460202  RH  043%=      5-min Rain = 0
KCL2 142217Z 08008KT 35/20 A3001 RMK A01 T03460200  RH  042%=      5-min Rain = 0
KCL2 142218Z 07007KT 35/20 A3001 RMK A01 T03450199  RH  042%=      5-min Rain = 0
KCL2 142219Z 06008KT 34/20 A3001 RMK A01 T03430199  RH  043%=      5-min Rain = 0
KCL2 142220Z 05006KT 34/20 A3001 RMK A01 T03420198  RH  043%=      5-min Rain = 0
KCL2 142221Z 07008KT 34/20 A3001 RMK A01 T03410199  RH  043%=      5-min Rain = 0
KCL2 142222Z 07008KT 34/20 A3001 RMK A01 T03410200  RH  044%=      5-min Rain = 0
KCL2 142223Z 07009KT 35/20 A3001 RMK A01 T03450202  RH  043%=      5-min Rain = 0
KCL2 142224Z 07010KT 35/20 A3001 RMK A01 T03450202  RH  043%=      5-min Rain = 0
KCL2 142225Z 05011KT 35/20 A3001 RMK A01 T03450202  RH  043%=      5-min Rain = 0
KCL2 142226Z 04010KT 35/20 A3001 RMK A01 T03470203  RH  043%=      5-min Rain = 0
KCL2 142227Z 04012KT 35/20 A3001 RMK A01 T03450201  RH  043%=      5-min Rain = 0
KCL2 142228Z 04012KT 34/20 A3001 RMK A01 T03430202  RH  044%=      5-min Rain = 0
KCL2 142229Z 04010KT 34/20 A3001 RMK A01 T03420200  RH  043%=      5-min Rain = 0
KCL2 142230Z 04009KT 34/20 A3001 RMK A01 T03420202  RH  044%=      5-min Rain = 0
KCL2 142231Z 05011KT 34/20 A3001 RMK A01 T03430200  RH  043%=      5-min Rain = 0
KCL2 142232Z 04009KT 34/20 A3001 RMK A01 T03420200  RH  044%=      5-min Rain = 0
KCL2 142233Z 03010KT 34/20 A30 RMK A01 T03410201  RH  044%=      5-min Rain = 0
KCL2 142234Z 05006KT 34/20 A30 RMK A01 T03420200  RH  043%=      5-min Rain = 0
KCL2 142235Z 06007KT 34/20 A30 RMK A01 T03420200  RH  043%=      5-min Rain = 0
KCL2 142236Z 05009KT 34/20 A30 RMK A01 T03420200  RH  043%=      5-min Rain = 0
KCL2 142237Z 06009KT 34/20 A30 RMK A01 T03430201  RH  044%=      5-min Rain = 0
KCL2 142238Z 08007KT 35/20 A30 RMK A01 T03460201  RH  043%=      5-min Rain = 0
KCL2 142239Z 08007KT 35/20 A30 RMK A01 T03470201  RH  042%=      5-min Rain = 0
KCL2 142240Z 08008KT 35/20 A30 RMK A01 T03450199  RH  042%=      5-min Rain = 0
KCL2 142241Z 08010KT 34/20 A30 RMK A01 T03440199  RH  043%=      5-min Rain = 0
KCL2 142242Z 09011KT 34/20 A30 RMK A01 T03440200  RH  043%=      5-min Rain = 0
KCL2 142243Z 10007KT 34/20 A30 RMK A01 T03440200  RH  043%=      5-min Rain = 0
KCL2 142244Z 09008KT 35/20 A30 RMK A01 T03450200  RH  043%=      5-min Rain = 0
KCL2 142245Z 05009G14KT 35/20 A30 RMK A01 T03450201  RH  043%=      5-min Rain = 0
KCL2 142246Z 06009KT 35/20 A30 RMK A01 T03460200  RH  043%=      5-min Rain = 0
KCL2 142247Z 06012KT 34/20 A30 RMK A01 T03440201  RH  043%=      5-min Rain = 0
KCL2 142248Z 07009KT 34/20 A30 RMK A01 T03440201  RH  043%=      5-min Rain = 0
KCL2 142249Z 06011KT 34/20 A30 RMK A01 T03440203  RH  044%=      5-min Rain = 0
KCL2 142250Z 07010KT 34/20 A30 RMK A01 T03440200  RH  043%=      5-min Rain = 0
KCL2 142251Z 07010KT 34/20 A30 RMK A01 T03440201  RH  043%=      5-min Rain = 0
KCL2 142252Z 09010KT 35/20 A30 RMK A01 T03460202  RH  043%=      5-min Rain = 0
KCL2 142253Z 08007KT 35/20 A30 RMK A01 T03450200  RH  043%=      5-min Rain = 0
KCL2 142254Z 07010KT 34/20 A30 RMK A01 T03430200  RH  043%=      5-min Rain = 0
KCL2 142255Z 06009KT 34/20 A30 RMK A01 T03420198  RH  043%=      5-min Rain = 0
KCL2 142256Z 07010KT 34/20 A30 RMK A01 T03400199  RH  044%=      5-min Rain = 0
KCL2 142257Z 07009KT 34/20 A30 RMK A01 T03400199  RH  044%=      5-min Rain = 0
KCL2 142258Z 07008KT 34/20 A30 RMK A01 T03410200  RH  044%=      5-min Rain = 0
KCL2 142259Z 07009KT 34/20 A30 RMK A01 T03420200  RH  043%=      5-min Rain = 0
KCL2 142300Z 07010KT 34/20 A30 RMK A01 T03420198  RH  043%=      5-min Rain = 0
KCL2 142301Z 07010KT 34/20 A30 RMK A01 T03430199  RH  043%=      5-min Rain = 0
KCL2 142302Z 07011KT 35/20 A30 RMK A01 T03450198  RH  042%=      5-min Rain = 0
KCL2 142303Z 06011KT 34/20 A30 RMK A01 T03430197  RH  042%=      5-min Rain = 0
KCL2 142304Z 04009KT 34/20 A30 RMK A01 T03410197  RH  043%=      5-min Rain = 0
KCL2 142305Z 05009KT 34/20 A30 RMK A01 T03400198  RH  043%=      5-min Rain = 0
KCL2 142306Z 06011KT 34/20 A3001 RMK A01 T03410198  RH  043%=      5-min Rain = 0
KCL2 142307Z 06008KT 34/20 A30 RMK A01 T03410200  RH  044%=      5-min Rain = 0
KCL2 142308Z 07006KT 34/20 A30 RMK A01 T03410200  RH  044%=      5-min Rain = 0
KCL2 142309Z 07009KT 34/20 A30 RMK A01 T03430201  RH  043%=      5-min Rain = 0
KCL2 142310Z 07010KT 34/20 A30 RMK A01 T03440200  RH  043%=      5-min Rain = 0
KCL2 142311Z 07009KT 34/20 A30 RMK A01 T03420200  RH  043%=      5-min Rain = 0
KCL2 142312Z 08008KT 34/20 A30 RMK A01 T03420201  RH  044%=      5-min Rain = 0
KCL2 142313Z 07011KT 34/20 A30 RMK A01 T03430201  RH  044%=      5-min Rain = 0
KCL2 142314Z 07010KT 34/20 A30 RMK A01 T03440201  RH  043%=      5-min Rain = 0
KCL2 142315Z 08009KT 35/20 A30 RMK A01 T03450202  RH  043%=      5-min Rain = 0
KCL2 142316Z 08010KT 35/20 A30 RMK A01 T03450201  RH  043%=      5-min Rain = 0
KCL2 142317Z 07010KT 35/20 A30 RMK A01 T03450202  RH  043%=      5-min Rain = 0
KCL2 142318Z 05011KT 34/20 A30 RMK A01 T03440203  RH  044%=      5-min Rain = 0
KCL2 142319Z 04011KT 34/20 A30 RMK A01 T03440203  RH  044%=      5-min Rain = 0
KCL2 142320Z 06010KT 34/20 A3001 RMK A01 T03430203  RH  044%=      5-min Rain = 0
KCL2 142321Z 07009KT 34/20 A3001 RMK A01 T03430204  RH  044%=      5-min Rain = 0
KCL2 142322Z 07007KT 34/20 A3001 RMK A01 T03430202  RH  044%=      5-min Rain = 0
KCL2 142323Z 09008KT 34/20 A3001 RMK A01 T03420202  RH  044%=      5-min Rain = 0
KCL2 142324Z 10008G13KT 34/20 A3001 RMK A01 T03400201  RH  044%=      5-min Rain = 0
KCL2 142325Z 09009KT 34/20 A3001 RMK A01 T03400201  RH  044%=      5-min Rain = 0
KCL2 142326Z 08009KT 34/20 A3001 RMK A01 T03420201  RH  044%=      5-min Rain = 0
KCL2 142327Z 06010KT 34/20 A3001 RMK A01 T03420201  RH  044%=      5-min Rain = 0
KCL2 142328Z 07010KT 34/20 A3001 RMK A01 T03420201  RH  044%=      5-min Rain = 0
KCL2 142329Z 05010KT 34/20 A3001 RMK A01 T03410201  RH  044%=      5-min Rain = 0
KCL2 142330Z 05008KT 34/20 A3001 RMK A01 T03390200  RH  044%=      5-min Rain = 0
KCL2 142331Z 05009KT 34/20 A3001 RMK A01 T03360200  RH  045%=      5-min Rain = 0
KCL2 142332Z 06010KT 33/20 A3001 RMK A01 T03340200  RH  045%=      5-min Rain = 0
KCL2 142333Z 06008KT 33/20 A3001 RMK A01 T03340198  RH  045%=      5-min Rain = 0
KCL2 142334Z 05006KT 33/20 A3001 RMK A01 T03340199  RH  045%=      5-min Rain = 0
KCL2 142335Z 05006KT 33/20 A3001 RMK A01 T03340199  RH  045%=      5-min Rain = 0
KCL2 142336Z 05006KT 34/20 A3001 RMK A01 T03360201  RH  045%=      5-min Rain = 0
KCL2 142337Z 06006KT 34/20 A3001 RMK A01 T03380200  RH  044%=      5-min Rain = 0
KCL2 142338Z 06008KT 34/20 A3001 RMK A01 T03390201  RH  044%=      5-min Rain = 0
KCL2 142339Z 06009KT 34/20 A3001 RMK A01 T03390200  RH  044%=      5-min Rain = 0
KCL2 142340Z 07008KT 34/20 A3001 RMK A01 T03390200  RH  044%=      5-min Rain = 0
KCL2 142341Z 08009KT 34/20 A3001 RMK A01 T03380199  RH  044%=      5-min Rain = 0
KCL2 142342Z 09006KT 34/20 A3001 RMK A01 T03360198  RH  044%=      5-min Rain = 0
KCL2 142343Z 10007KT 34/20 A3001 RMK A01 T03370199  RH  044%=      5-min Rain = 0
KCL2 142344Z 09007KT 34/20 A3001 RMK A01 T03360199  RH  045%=      5-min Rain = 0
KCL2 142345Z 08007KT 34/20 A3001 RMK A01 T03380199  RH  044%=      5-min Rain = 0
KCL2 142346Z 10007KT 34/20 A3001 RMK A01 T03380199  RH  044%=      5-min Rain = 0
KCL2 142347Z 08008KT 34/20 A3001 RMK A01 T03380199  RH  044%=      5-min Rain = 0
KCL2 142348Z 10005KT 34/20 A3001 RMK A01 T03380199  RH  044%=      5-min Rain = 0
KCL2 142349Z 08006KT 34/20 A3001 RMK A01 T03390200  RH  044%=      5-min Rain = 0
KCL2 142350Z 08005KT 34/20 A3001 RMK A01 T03390200  RH  044%=      5-min Rain = 0
KCL2 142351Z 09007KT 34/20 A3001 RMK A01 T03400201  RH  044%=      5-min Rain = 0
KCL2 142352Z 06006KT 34/20 A3001 RMK A01 T03400199  RH  044%=      5-min Rain = 0
KCL2 142353Z 07006KT 34/20 A3001 RMK A01 T03390199  RH  044%=      5-min Rain = 0
KCL2 142354Z 07008KT 34/20 A3001 RMK A01 T03390199  RH  044%=      5-min Rain = 0
KCL2 142355Z 07008KT 34/20 A3001 RMK A01 T03380198  RH  044%=      5-min Rain = 0
KCL2 142356Z 06006KT 34/20 A3001 RMK A01 T03360197  RH  044%=      5-min Rain = 0
KCL2 142357Z 06007KT 34/20 A3001 RMK A01 T03350199  RH  045%=      5-min Rain = 0
KCL2 142358Z 06010KT 34/20 A3001 RMK A01 T03350199  RH  045%=      5-min Rain = 0
KCL2 142359Z 06009KT 34/20 A3001 RMK A01 T03350200  RH  045%=      5-min Rain = 0
KCL2 150000Z 07009KT 34/20 A3001 RMK A01 T03350200  RH  045%=      5-min Rain = 0
KCL2 150001Z 07008KT 34/20 A3001 RMK A01 T03350200  RH  045%=      5-min Rain = 0
KCL2 150002Z 07009KT 34/20 A3001 RMK A01 T03350200  RH  045%=      5-min Rain = 0
KCL2 150003Z 06008KT 34/20 A3001 RMK A01 T03350199  RH  045%=      5-min Rain = 0
KCL2 150004Z 06008KT 33/20 A3001 RMK A01 T03340199  RH  045%=      5-min Rain = 0
KCL2 150005Z 07008KT 33/20 A3001 RMK A01 T03340200  RH  045%=      5-min Rain = 0
KCL2 150006Z 07007KT 33/20 A3001 RMK A01 T03330199  RH  045%=      5-min Rain = 0
KCL2 150007Z 06006KT 33/20 A3001 RMK A01 T03330200  RH  045%=      5-min Rain = 0
KCL2 150008Z 06006KT 33/20 A3001 RMK A01 T03330200  RH  046%=      5-min Rain = 0
KCL2 150009Z 06006KT 33/20 A3001 RMK A01 T03330199  RH  046%=      5-min Rain = 0
KCL2 150010Z 05005KT 33/20 A3001 RMK A01 T03330200  RH  046%=      5-min Rain = 0
KCL2 150011Z 07006KT 33/20 A3001 RMK A01 T03340202  RH  046%=      5-min Rain = 0
KCL2 150012Z 08006KT 34/20 A3001 RMK A01 T03350202  RH  046%=      5-min Rain = 0
KCL2 150013Z 08006KT 34/20 A3001 RMK A01 T03350201  RH  045%=      5-min Rain = 0
KCL2 150014Z 07006KT 33/20 A3001 RMK A01 T03340201  RH  045%=      5-min Rain = 0
KCL2 150015Z 06007KT 33/20 A3001 RMK A01 T03340201  RH  046%=      5-min Rain = 0
KCL2 150016Z 06007KT 33/20 A3001 RMK A01 T03340200  RH  046%=      5-min Rain = 0
KCL2 150017Z 07007KT 33/20 A3001 RMK A01 T03330201  RH  046%=      5-min Rain = 0
KCL2 150018Z 07007KT 33/20 A3001 RMK A01 T03330201  RH  046%=      5-min Rain = 0
KCL2 150019Z 08008KT 33/20 A3001 RMK A01 T03330201  RH  046%=      5-min Rain = 0
KCL2 150020Z 07007KT 33/20 A3001 RMK A01 T03330201  RH  046%=      5-min Rain = 0
KCL2 150021Z 07008KT 33/20 A3001 RMK A01 T03330201  RH  046%=      5-min Rain = 0
KCL2 150022Z 07008KT 33/20 A3001 RMK A01 T03330201  RH  046%=      5-min Rain = 0
KCL2 150023Z 07006KT 33/20 A3001 RMK A01 T03320202  RH  046%=      5-min Rain = 0
KCL2 150024Z 06007KT 33/20 A3001 RMK A01 T03320202  RH  046%=      5-min Rain = 0
KCL2 150025Z 08007KT 33/20 A3001 RMK A01 T03310201  RH  046%=      5-min Rain = 0
KCL2 150026Z 06007KT 33/20 A3001 RMK A01 T03310201  RH  046%=      5-min Rain = 0
KCL2 150027Z 06007KT 33/20 A3001 RMK A01 T03310201  RH  047%=      5-min Rain = 0
KCL2 150028Z 05007KT 33/20 A3001 RMK A01 T03300201  RH  047%=      5-min Rain = 0
KCL2 150029Z 06007KT 33/20 A3001 RMK A01 T03300201  RH  047%=      5-min Rain = 0
KCL2 150030Z 07006KT 33/20 A3001 RMK A01 T03300201  RH  047%=      5-min Rain = 0
KCL2 150031Z 07006KT 33/20 A3001 RMK A01 T03290201  RH  047%=      5-min Rain = 0
KCL2 150032Z 07007KT 33/20 A3001 RMK A01 T03300201  RH  047%=      5-min Rain = 0
KCL2 150033Z 06007KT 33/20 A3001 RMK A01 T03300201  RH  047%=      5-min Rain = 0
KCL2 150034Z 06007KT 33/20 A3001 RMK A01 T03300202  RH  047%=      5-min Rain = 0
KCL2 150035Z 06008KT 33/20 A3001 RMK A01 T03300201  RH  047%=      5-min Rain = 0
KCL2 150036Z 06008KT 33/20 A3001 RMK A01 T03300201  RH  047%=      5-min Rain = 0
KCL2 150037Z 05008KT 33/20 A3001 RMK A01 T03290201  RH  047%=      5-min Rain = 0
KCL2 150038Z 04007KT 33/20 A3001 RMK A01 T03290202  RH  047%=      5-min Rain = 0
KCL2 150039Z 06006KT 33/20 A3001 RMK A01 T03270202  RH  048%=      5-min Rain = 0
KCL2 150040Z 06005KT 33/20 A3001 RMK A01 T03270203  RH  048%=      5-min Rain = 0
KCL2 150041Z 06007KT 33/20 A3001 RMK A01 T03270202  RH  048%=      5-min Rain = 0
KCL2 150042Z 05007KT 33/20 A3001 RMK A01 T03270202  RH  048%=      5-min Rain = 0
KCL2 150043Z 05008KT 33/20 A3001 RMK A01 T03270203  RH  048%=      5-min Rain = 0
KCL2 150044Z 05008KT 33/20 A3001 RMK A01 T03270202  RH  048%=      5-min Rain = 0
KCL2 150045Z 05006KT 33/20 A3001 RMK A01 T03270201  RH  048%=      5-min Rain = 0
KCL2 150046Z 06006KT 33/20 A3001 RMK A01 T03260202  RH  048%=      5-min Rain = 0
KCL2 150047Z 07008KT 33/20 A3001 RMK A01 T03260201  RH  048%=      5-min Rain = 0
KCL2 150048Z 06008KT 33/20 A3001 RMK A01 T03260201  RH  048%=      5-min Rain = 0
KCL2 150049Z 05007KT 33/20 A3001 RMK A01 T03260201  RH  048%=      5-min Rain = 0
KCL2 150050Z 06008KT 33/20 A3001 RMK A01 T03260201  RH  048%=      5-min Rain = 0
KCL2 150051Z 07007KT 33/20 A3001 RMK A01 T03260201  RH  048%=      5-min Rain = 0
KCL2 150052Z 06007KT 33/20 A3001 RMK A01 T03250200  RH  048%=      5-min Rain = 0
KCL2 150053Z 05008KT 33/20 A3001 RMK A01 T03250200  RH  048%=      5-min Rain = 0
KCL2 150054Z 06008KT 33/20 A3001 RMK A01 T03250201  RH  048%=      5-min Rain = 0
KCL2 150055Z 06008KT 33/20 A3001 RMK A01 T03250202  RH  048%=      5-min Rain = 0
KCL2 150056Z 06008KT 32/20 A3001 RMK A01 T03240202  RH  048%=      5-min Rain = 0
KCL2 150057Z 06009KT 32/20 A3001 RMK A01 T03240202  RH  049%=      5-min Rain = 0
KCL2 150058Z 06008KT 32/20 A3001 RMK A01 T03240202  RH  049%=      5-min Rain = 0
KCL2 150059Z 06008KT 32/20 A3002 RMK A01 T03230202  RH  049%=      5-min Rain = 0
KCL2 150100Z 06007KT 32/20 A3002 RMK A01 T03230202  RH  049%=      5-min Rain = 0
KCL2 150101Z 06008KT 32/20 A3002 RMK A01 T03230202  RH  049%=      5-min Rain = 0
KCL2 150102Z 06008KT 32/20 A3002 RMK A01 T03230202  RH  049%=      5-min Rain = 0
KCL2 150103Z 07007KT 32/20 A3002 RMK A01 T03220202  RH  049%=      5-min Rain = 0
KCL2 150104Z 07007KT 32/20 A3002 RMK A01 T03220202  RH  049%=      5-min Rain = 0
KCL2 150105Z 06007KT 32/20 A3002 RMK A01 T03220202  RH  049%=      5-min Rain = 0
KCL2 150106Z 06006KT 32/20 A3002 RMK A01 T03210202  RH  049%=      5-min Rain = 0
KCL2 150107Z 06007KT 32/20 A3002 RMK A01 T03210202  RH  049%=      5-min Rain = 0
KCL2 150108Z 06006KT 32/20 A3002 RMK A01 T03210202  RH  049%=      5-min Rain = 0
KCL2 150109Z 06006KT 32/20 A3002 RMK A01 T03210202  RH  050%=      5-min Rain = 0
KCL2 150110Z 06006KT 32/20 A3002 RMK A01 T03200202  RH  050%=      5-min Rain = 0
KCL2 150111Z 06006KT 32/20 A3002 RMK A01 T03200202  RH  050%=      5-min Rain = 0
KCL2 150112Z 06006KT 32/20 A3002 RMK A01 T03200202  RH  050%=      5-min Rain = 0
KCL2 150113Z 06006KT 32/20 A3002 RMK A01 T03190201  RH  050%=      5-min Rain = 0
KCL2 150114Z 06005KT 32/20 A3002 RMK A01 T03190202  RH  050%=      5-min Rain = 0
KCL2 150115Z 06005KT 32/20 A3002 RMK A01 T03190202  RH  050%=      5-min Rain = 0
KCL2 150116Z 05006KT 32/20 A3002 RMK A01 T03180202  RH  050%=      5-min Rain = 0
KCL2 150117Z 06005KT 32/20 A3002 RMK A01 T03170202  RH  051%=      5-min Rain = 0
KCL2 150118Z 06007KT 32/20 A3002 RMK A01 T03170202  RH  051%=      5-min Rain = 0
KCL2 150119Z 06007KT 32/20 A3002 RMK A01 T03170201  RH  050%=      5-min Rain = 0
KCL2 150120Z 06007KT 32/20 A3002 RMK A01 T03170201  RH  050%=      5-min Rain = 0
KCL2 150121Z 06006KT 32/20 A3002 RMK A01 T03170202  RH  051%=      5-min Rain = 0
KCL2 150122Z 06006KT 32/20 A3002 RMK A01 T03160203  RH  051%=      5-min Rain = 0
KCL2 150123Z 06006KT 32/20 A3002 RMK A01 T03160202  RH  051%=      5-min Rain = 0
KCL2 150124Z 06005KT 32/20 A3002 RMK A01 T03150202  RH  051%=      5-min Rain = 0
KCL2 150125Z 07005KT 32/20 A3002 RMK A01 T03150202  RH  051%=      5-min Rain = 0
KCL2 150126Z 07005KT 32/20 A3002 RMK A01 T03150202  RH  051%=      5-min Rain = 0
KCL2 150127Z 07005KT 31/20 A3002 RMK A01 T03140202  RH  052%=      5-min Rain = 0
KCL2 150128Z 07005KT 31/20 A3002 RMK A01 T03130202  RH  052%=      5-min Rain = 0
KCL2 150129Z 07006KT 31/20 A3003 RMK A01 T03130203  RH  052%=      5-min Rain = 0
KCL2 150130Z 07006KT 31/20 A3003 RMK A01 T03130202  RH  052%=      5-min Rain = 0
KCL2 150131Z 08005KT 31/20 A3003 RMK A01 T03130202  RH  052%=      5-min Rain = 0
KCL2 150132Z 09004KT 31/20 A3003 RMK A01 T03130202  RH  052%=      5-min Rain = 0
KCL2 150133Z 08005KT 31/20 A3003 RMK A01 T03130203  RH  052%=      5-min Rain = 0
KCL2 150134Z 08005KT 31/20 A3003 RMK A01 T03120204  RH  052%=      5-min Rain = 0
KCL2 150135Z 09005KT 31/20 A3003 RMK A01 T03110203  RH  053%=      5-min Rain = 0
KCL2 150136Z 09005KT 31/20 A3003 RMK A01 T03100204  RH  053%=      5-min Rain = 0
KCL2 150137Z 09005KT 31/20 A3003 RMK A01 T03090204  RH  053%=      5-min Rain = 0
KCL2 150138Z 10005KT 31/20 A3003 RMK A01 T03080204  RH  054%=      5-min Rain = 0
KCL2 150139Z 11004KT 31/20 A3003 RMK A01 T03070203  RH  054%=      5-min Rain = 0
KCL2 150140Z 11005KT 31/20 A3003 RMK A01 T03060204  RH  054%=      5-min Rain = 0
KCL2 150141Z 10005KT 31/20 A3003 RMK A01 T03050203  RH  055%=      5-min Rain = 0
KCL2 150142Z 10004KT 31/20 A3004 RMK A01 T03050203  RH  055%=      5-min Rain = 0
KCL2 150143Z 10004KT 31/20 A3004 RMK A01 T03050203  RH  055%=      5-min Rain = 0
KCL2 150144Z 10004KT 31/20 A3004 RMK A01 T03050203  RH  055%=      5-min Rain = 0
KCL2 150145Z 11004KT 31/20 A3004 RMK A01 T03050204  RH  055%=      5-min Rain = 0
KCL2 150146Z 11005KT 31/20 A3004 RMK A01 T03050204  RH  055%=      5-min Rain = 0
KCL2 150147Z 11005KT 30/20 A3004 RMK A01 T03040204  RH  055%=      5-min Rain = 0
KCL2 150148Z 11005KT 30/20 A3004 RMK A01 T03040204  RH  055%=      5-min Rain = 0
KCL2 150149Z 10006KT 30/21 A3004 RMK A01 T03040205  RH  055%=      5-min Rain = 0
KCL2 150150Z 10008KT 30/21 A3004 RMK A01 T03040206  RH  056%=      5-min Rain = 0
KCL2 150151Z 11007KT 30/21 A3004 RMK A01 T03040208  RH  056%=      5-min Rain = 0
KCL2 150152Z 10009KT 31/21 A3005 RMK A01 T03050209  RH  057%=      5-min Rain = 0
KCL2 150153Z 11007KT 31/21 A3005 RMK A01 T03050210  RH  057%=      5-min Rain = 0
KCL2 150154Z 10006KT 31/21 A3005 RMK A01 T03050209  RH  057%=      5-min Rain = 0
KCL2 150155Z 09005KT 31/21 A3005 RMK A01 T03050209  RH  056%=      5-min Rain = 0
KCL2 150156Z 10006KT 31/21 A3005 RMK A01 T03050210  RH  057%=      5-min Rain = 0
KCL2 150157Z 10007KT 30/21 A3005 RMK A01 T03040210  RH  057%=      5-min Rain = 0
KCL2 150158Z 10006KT 30/21 A3005 RMK A01 T03040211  RH  058%=      5-min Rain = 0
KCL2 150159Z 10007KT 30/21 A3005 RMK A01 T03040211  RH  058%=      5-min Rain = 0
KCL2 150200Z 11008KT 30/21 A3005 RMK A01 T03030211  RH  058%=      5-min Rain = 0
KCL2 150201Z 11006KT 30/21 A3005 RMK A01 T03030212  RH  058%=      5-min Rain = 0
KCL2 150202Z 11006KT 30/21 A3005 RMK A01 T03030212  RH  058%=      5-min Rain = 0
KCL2 150203Z 11005KT 30/21 A3005 RMK A01 T03030212  RH  058%=      5-min Rain = 0
KCL2 150204Z 11005KT 30/21 A3005 RMK A01 T03020212  RH  059%=      5-min Rain = 0
KCL2 150205Z 11004KT 30/21 A3005 RMK A01 T03010212  RH  059%=      5-min Rain = 0
KCL2 150206Z 11005KT 30/21 A3005 RMK A01 T03010212  RH  059%=      5-min Rain = 0
KCL2 150207Z 11005KT 30/21 A3005 RMK A01 T03000212  RH  059%=      5-min Rain = 0
KCL2 150208Z 12004KT 30/21 A3005 RMK A01 T03000212  RH  059%=      5-min Rain = 0
KCL2 150209Z 11004KT 30/21 A3005 RMK A01 T02990212  RH  059%=      5-min Rain = 0
KCL2 150210Z 12003KT 30/21 A3005 RMK A01 T02990212  RH  060%=      5-min Rain = 0
KCL2 150211Z 12004KT 30/21 A3005 RMK A01 T02990212  RH  060%=      5-min Rain = 0
KCL2 150212Z 12003KT 30/21 A3006 RMK A01 T02980212  RH  060%=      5-min Rain = 0
KCL2 150213Z 12004KT 30/21 A3006 RMK A01 T02970212  RH  060%=      5-min Rain = 0
KCL2 150214Z 13003KT 30/21 A3006 RMK A01 T02970212  RH  060%=      5-min Rain = 0
KCL2 150215Z 13004KT 30/21 A3006 RMK A01 T02960212  RH  061%=      5-min Rain = 0
KCL2 150216Z 13003KT 30/21 A3006 RMK A01 T02960212  RH  061%=      5-min Rain = 0
KCL2 150217Z 13003KT 30/21 A3006 RMK A01 T02950212  RH  061%=      5-min Rain = 0
KCL2 150218Z 13004KT 29/21 A3006 RMK A01 T02940212  RH  061%=      5-min Rain = 0
KCL2 150219Z 13004KT 29/21 A3006 RMK A01 T02940212  RH  062%=      5-min Rain = 0
KCL2 150220Z 13004KT 29/21 A3006 RMK A01 T02930212  RH  062%=      5-min Rain = 0
KCL2 150221Z 12004KT 29/21 A3006 RMK A01 T02930212  RH  062%=      5-min Rain = 0
KCL2 150222Z 12005KT 29/21 A3006 RMK A01 T02930212  RH  062%=      5-min Rain = 0
KCL2 150223Z 13005KT 29/21 A3007 RMK A01 T02930213  RH  062%=      5-min Rain = 0
KCL2 150224Z 12005KT 29/21 A3007 RMK A01 T02920212  RH  062%=      5-min Rain = 0
KCL2 150225Z 13005KT 29/21 A3007 RMK A01 T02930213  RH  062%=      5-min Rain = 0
KCL2 150226Z 13006KT 29/21 A3007 RMK A01 T02930214  RH  062%=      5-min Rain = 0
KCL2 150227Z 12005KT 29/21 A3007 RMK A01 T02930214  RH  062%=      5-min Rain = 0
KCL2 150228Z 13005KT 29/21 A3007 RMK A01 T02930214  RH  062%=      5-min Rain = 0
KCL2 150229Z 13005KT 29/21 A3007 RMK A01 T02930214  RH  063%=      5-min Rain = 0
KCL2 150230Z 13005KT 29/21 A3007 RMK A01 T02920214  RH  063%=      5-min Rain = 0
KCL2 150231Z 12005KT 29/21 A3007 RMK A01 T02920214  RH  063%=      5-min Rain = 0
KCL2 150232Z 13005KT 29/21 A3007 RMK A01 T02920214  RH  063%=      5-min Rain = 0
KCL2 150233Z 13005KT 29/21 A3007 RMK A01 T02910214  RH  063%=      5-min Rain = 0
KCL2 150234Z 13004KT 29/21 A3007 RMK A01 T02910214  RH  063%=      5-min Rain = 0
KCL2 150235Z 13005KT 29/21 A3007 RMK A01 T02910214  RH  063%=      5-min Rain = 0
KCL2 150236Z 13005KT 29/21 A3007 RMK A01 T02900214  RH  064%=      5-min Rain = 0
KCL2 150237Z 13005KT 29/22 A3007 RMK A01 T02900215  RH  064%=      5-min Rain = 0
KCL2 150238Z 12005KT 29/21 A3007 RMK A01 T02890214  RH  064%=      5-min Rain = 0
KCL2 150239Z 13004KT 29/21 A3007 RMK A01 T02890214  RH  064%=      5-min Rain = 0
KCL2 150240Z 13005KT 29/21 A3007 RMK A01 T02890214  RH  064%=      5-min Rain = 0
KCL2 150241Z 13005KT 29/21 A3007 RMK A01 T02890214  RH  064%=      5-min Rain = 0
KCL2 150242Z 13004KT 29/21 A3008 RMK A01 T02880214  RH  064%=      5-min Rain = 0
KCL2 150243Z 13004KT 29/21 A3008 RMK A01 T02880214  RH  064%=      5-min Rain = 0
KCL2 150244Z 13005KT 29/21 A3008 RMK A01 T02870214  RH  065%=      5-min Rain = 0
KCL2 150245Z 13004KT 29/22 A3008 RMK A01 T02870215  RH  065%=      5-min Rain = 0
KCL2 150246Z 12005KT 29/22 A3008 RMK A01 T02870215  RH  065%=      5-min Rain = 0
KCL2 150247Z 12005KT 29/22 A3008 RMK A01 T02860215  RH  065%=      5-min Rain = 0
KCL2 150248Z 12005KT 29/22 A3008 RMK A01 T02860215  RH  065%=      5-min Rain = 0
KCL2 150249Z 12004KT 29/22 A3008 RMK A01 T02860215  RH  065%=      5-min Rain = 0
KCL2 150250Z 12004KT 29/22 A3008 RMK A01 T02860215  RH  065%=      5-min Rain = 0
KCL2 150251Z 12004KT 29/21 A3008 RMK A01 T02850214  RH  066%=      5-min Rain = 0
KCL2 150252Z 12004KT 29/22 A3008 RMK A01 T02850215  RH  066%=      5-min Rain = 0
KCL2 150253Z 12004KT 28/22 A3008 RMK A01 T02840215  RH  066%=      5-min Rain = 0
KCL2 150254Z 13004KT 28/22 A3008 RMK A01 T02840215  RH  066%=      5-min Rain = 0
KCL2 150255Z 12005KT 28/22 A3008 RMK A01 T02840215  RH  066%=      5-min Rain = 0
KCL2 150256Z 12004KT 28/21 A3008 RMK A01 T02840214  RH  066%=      5-min Rain = 0
KCL2 150257Z 12004KT 28/22 A3008 RMK A01 T02840215  RH  066%=      5-min Rain = 0
KCL2 150258Z 12004KT 28/22 A3009 RMK A01 T02840215  RH  066%=      5-min Rain = 0
KCL2 150259Z 12004KT 28/22 A3009 RMK A01 T02840215  RH  066%=      5-min Rain = 0
KCL2 150300Z 12004KT 28/22 A3009 RMK A01 T02830215  RH  066%=      5-min Rain = 0
KCL2 150301Z 12004KT 28/22 A3009 RMK A01 T02830215  RH  066%=      5-min Rain = 0
KCL2 150302Z 12005KT 28/22 A3009 RMK A01 T02830215  RH  066%=      5-min Rain = 0
KCL2 150303Z 12005KT 28/22 A3009 RMK A01 T02830215  RH  066%=      5-min Rain = 0
KCL2 150304Z 11004KT 28/22 A3009 RMK A01 T02830215  RH  066%=      5-min Rain = 0
KCL2 150305Z 11004KT 28/22 A3009 RMK A01 T02830215  RH  066%=      5-min Rain = 0
KCL2 150306Z 11004KT 28/22 A3009 RMK A01 T02830215  RH  066%=      5-min Rain = 0
KCL2 150307Z 11004KT 28/22 A3009 RMK A01 T02840215  RH  066%=      5-min Rain = 0
KCL2 150308Z 11004KT 28/22 A3009 RMK A01 T02830215  RH  066%=      5-min Rain = 0
KCL2 150309Z 11004KT 28/22 A3009 RMK A01 T02830215  RH  066%=      5-min Rain = 0
KCL2 150310Z 11004KT 28/22 A3009 RMK A01 T02830215  RH  066%=      5-min Rain = 0
KCL2 150311Z 11003KT 28/22 A3009 RMK A01 T02830215  RH  066%=      5-min Rain = 0
KCL2 150312Z 11004KT 28/22 A3009 RMK A01 T02830215  RH  066%=      5-min Rain = 0
KCL2 150313Z 11004KT 28/22 A301 RMK A01 T02840216  RH  067%=      5-min Rain = 0
KCL2 150314Z 11004KT 28/22 A301 RMK A01 T02830215  RH  067%=      5-min Rain = 0
KCL2 150315Z 11004KT 28/22 A301 RMK A01 T02830215  RH  067%=      5-min Rain = 0
KCL2 150316Z 11004KT 28/22 A301 RMK A01 T02830215  RH  067%=      5-min Rain = 0
KCL2 150317Z 12004KT 28/22 A301 RMK A01 T02830216  RH  067%=      5-min Rain = 0
KCL2 150318Z 12004KT 28/22 A301 RMK A01 T02820215  RH  067%=      5-min Rain = 0
KCL2 150319Z 12005KT 28/22 A301 RMK A01 T02820215  RH  067%=      5-min Rain = 0
KCL2 150320Z 12004KT 28/22 A301 RMK A01 T02810215  RH  067%=      5-min Rain = 0
KCL2 150321Z 12005KT 28/22 A301 RMK A01 T02810215  RH  067%=      5-min Rain = 0
KCL2 150322Z 12004KT 28/22 A301 RMK A01 T02810215  RH  067%=      5-min Rain = 0
KCL2 150323Z 12005KT 28/22 A301 RMK A01 T02810215  RH  067%=      5-min Rain = 0
KCL2 150324Z 12005KT 28/22 A301 RMK A01 T02810215  RH  068%=      5-min Rain = 0
KCL2 150325Z 12005KT 28/22 A301 RMK A01 T02800215  RH  068%=      5-min Rain = 0
KCL2 150326Z 12004KT 28/22 A301 RMK A01 T02800215  RH  068%=      5-min Rain = 0
KCL2 150327Z 12005KT 28/21 A301 RMK A01 T02800214  RH  068%=      5-min Rain = 0
KCL2 150328Z 12005KT 28/22 A301 RMK A01 T02800215  RH  068%=      5-min Rain = 0
KCL2 150329Z 12005KT 28/22 A301 RMK A01 T02800215  RH  068%=      5-min Rain = 0
KCL2 150330Z 12005KT 28/22 A301 RMK A01 T02800215  RH  068%=      5-min Rain = 0
KCL2 150331Z 12005KT 28/22 A301 RMK A01 T02790215  RH  068%=      5-min Rain = 0
KCL2 150332Z 12005KT 28/22 A301 RMK A01 T02790215  RH  068%=      5-min Rain = 0
KCL2 150333Z 12005KT 28/21 A301 RMK A01 T02790214  RH  068%=      5-min Rain = 0
KCL2 150334Z 12005KT 28/22 A301 RMK A01 T02790215  RH  068%=      5-min Rain = 0
KCL2 150335Z 12005KT 28/21 A301 RMK A01 T02790214  RH  068%=      5-min Rain = 0
KCL2 150336Z 12004KT 28/21 A3011 RMK A01 T02780214  RH  068%=      5-min Rain = 0
KCL2 150337Z 12005KT 28/21 A3011 RMK A01 T02790214  RH  068%=      5-min Rain = 0
KCL2 150338Z 12005KT 28/21 A3011 RMK A01 T02780214  RH  068%=      5-min Rain = 0
KCL2 150339Z 12005KT 28/21 A3011 RMK A01 T02780214  RH  068%=      5-min Rain = 0
KCL2 150340Z 12005KT 28/21 A3011 RMK A01 T02780214  RH  068%=      5-min Rain = 0
KCL2 150341Z 12005KT 28/21 A3011 RMK A01 T02770214  RH  068%=      5-min Rain = 0
KCL2 150342Z 12005KT 28/21 A3011 RMK A01 T02770214  RH  069%=      5-min Rain = 0
KCL2 150343Z 12005KT 28/21 A3011 RMK A01 T02770214  RH  069%=      5-min Rain = 0
KCL2 150344Z 12005KT 28/21 A3011 RMK A01 T02770214  RH  069%=      5-min Rain = 0
KCL2 150345Z 12005KT 28/21 A3011 RMK A01 T02760214  RH  069%=      5-min Rain = 0
KCL2 150346Z 13005KT 28/21 A3011 RMK A01 T02760214  RH  069%=      5-min Rain = 0
KCL2 150347Z 12005KT 28/21 A3011 RMK A01 T02760214  RH  069%=      5-min Rain = 0
KCL2 150348Z 13005KT 28/21 A3011 RMK A01 T02760214  RH  069%=      5-min Rain = 0
KCL2 150349Z 12005KT 28/21 A3011 RMK A01 T02760213  RH  069%=      5-min Rain = 0
KCL2 150350Z 13006KT 28/21 A3011 RMK A01 T02760214  RH  069%=      5-min Rain = 0
KCL2 150351Z 13006KT 28/21 A3011 RMK A01 T02760213  RH  069%=      5-min Rain = 0
KCL2 150352Z 13006KT 28/21 A3011 RMK A01 T02760213  RH  069%=      5-min Rain = 0
KCL2 150353Z 13006KT 28/21 A3011 RMK A01 T02750213  RH  069%=      5-min Rain = 0
KCL2 150354Z 13006KT 28/21 A3011 RMK A01 T02750214  RH  069%=      5-min Rain = 0
KCL2 150355Z 13006KT 28/21 A3011 RMK A01 T02750213  RH  069%=      5-min Rain = 0
KCL2 150356Z 13007KT 28/21 A3011 RMK A01 T02750213  RH  069%=      5-min Rain = 0
KCL2 150357Z 13007KT 28/21 A3011 RMK A01 T02750213  RH  069%=      5-min Rain = 0
KCL2 150358Z 13007KT 28/21 A3011 RMK A01 T02760212  RH  068%=      5-min Rain = 0
KCL2 150359Z 12008KT 28/21 A3011 RMK A01 T02760212  RH  068%=      5-min Rain = 0
KCL2 150400Z 13007KT 28/21 A3011 RMK A01 T02770212  RH  068%=      5-min Rain = 0
KCL2 150401Z 12007KT 28/21 A3011 RMK A01 T02770212  RH  068%=      5-min Rain = 0
KCL2 150402Z 13006KT 28/21 A3011 RMK A01 T02770212  RH  068%=      5-min Rain = 0
KCL2 150403Z 13006KT 28/21 A3011 RMK A01 T02780212  RH  068%=      5-min Rain = 0
KCL2 150404Z 12007KT 28/21 A3011 RMK A01 T02780212  RH  068%=      5-min Rain = 0
KCL2 150405Z 12007KT 28/21 A3011 RMK A01 T02770212  RH  068%=      5-min Rain = 0
KCL2 150406Z 13006KT 28/21 A3011 RMK A01 T02780212  RH  067%=      5-min Rain = 0
KCL2 150407Z 12005KT 28/21 A3011 RMK A01 T02770212  RH  067%=      5-min Rain = 0
KCL2 150408Z 12006KT 28/21 A3011 RMK A01 T02770212  RH  067%=      5-min Rain = 0
KCL2 150409Z 13004KT 28/21 A3011 RMK A01 T02770212  RH  068%=      5-min Rain = 0
KCL2 150410Z 13005KT 28/21 A3011 RMK A01 T02770212  RH  068%=      5-min Rain = 0
KCL2 150411Z 13006KT 28/21 A3011 RMK A01 T02760212  RH  068%=      5-min Rain = 0
KCL2 150412Z 13005KT 28/21 A3011 RMK A01 T02760212  RH  068%=      5-min Rain = 0
KCL2 150413Z 14005KT 28/21 A3011 RMK A01 T02760212  RH  068%=      5-min Rain = 0
KCL2 150414Z 13005KT 28/21 A3011 RMK A01 T02760212  RH  068%=      5-min Rain = 0
KCL2 150415Z 14005KT 28/21 A3011 RMK A01 T02750212  RH  068%=      5-min Rain = 0
KCL2 150416Z 14005KT 28/21 A3011 RMK A01 T02750212  RH  068%=      5-min Rain = 0
KCL2 150417Z 14005KT 28/21 A3011 RMK A01 T02750212  RH  069%=      5-min Rain = 0
KCL2 150418Z 15005KT 28/21 A3011 RMK A01 T02750212  RH  069%=      5-min Rain = 0
KCL2 150419Z 15005KT 27/21 A3011 RMK A01 T02740212  RH  069%=      5-min Rain = 0
KCL2 150420Z 15004KT 27/21 A3011 RMK A01 T02740212  RH  069%=      5-min Rain = 0
KCL2 150421Z 15005KT 27/21 A3011 RMK A01 T02730212  RH  069%=      5-min Rain = 0
KCL2 150422Z 15004KT 27/21 A3011 RMK A01 T02730212  RH  069%=      5-min Rain = 0
KCL2 150423Z 14004KT 27/21 A3011 RMK A01 T02730212  RH  069%=      5-min Rain = 0
KCL2 150424Z 14005KT 27/21 A3011 RMK A01 T02720211  RH  069%=      5-min Rain = 0
KCL2 150425Z 14004KT 27/21 A3011 RMK A01 T02720211  RH  070%=      5-min Rain = 0
KCL2 150426Z 14005KT 27/21 A3011 RMK A01 T02710211  RH  070%=      5-min Rain = 0
KCL2 150427Z 14005KT 27/21 A3011 RMK A01 T02700211  RH  070%=      5-min Rain = 0
KCL2 150428Z 14005KT 27/21 A3011 RMK A01 T02700211  RH  070%=      5-min Rain = 0
KCL2 150429Z 14005KT 27/21 A3011 RMK A01 T02690211  RH  070%=      5-min Rain = 0
KCL2 150430Z 14005KT 27/21 A3011 RMK A01 T02690211  RH  070%=      5-min Rain = 0
KCL2 150431Z 13005KT 27/21 A3011 RMK A01 T02690211  RH  070%=      5-min Rain = 0
KCL2 150432Z 14005KT 27/21 A3011 RMK A01 T02690211  RH  071%=      5-min Rain = 0
KCL2 150433Z 14005KT 27/21 A3011 RMK A01 T02690211  RH  071%=      5-min Rain = 0
KCL2 150434Z 14005KT 27/21 A3011 RMK A01 T02690211  RH  071%=      5-min Rain = 0
KCL2 150435Z 13005KT 27/21 A3011 RMK A01 T02690211  RH  071%=      5-min Rain = 0
KCL2 150436Z 13005KT 27/21 A3011 RMK A01 T02680211  RH  071%=      5-min Rain = 0
KCL2 150437Z 14006KT 27/21 A3011 RMK A01 T02680211  RH  071%=      5-min Rain = 0
KCL2 150438Z 14005KT 27/21 A3011 RMK A01 T02680211  RH  071%=      5-min Rain = 0
KCL2 150439Z 14005KT 27/21 A3011 RMK A01 T02680212  RH  071%=      5-min Rain = 0
KCL2 150440Z 14005KT 27/21 A3011 RMK A01 T02670211  RH  071%=      5-min Rain = 0
KCL2 150441Z 14005KT 27/21 A3011 RMK A01 T02670211  RH  071%=      5-min Rain = 0
KCL2 150442Z 14005KT 27/21 A3011 RMK A01 T02670211  RH  071%=      5-min Rain = 0
KCL2 150443Z 14005KT 27/21 A3011 RMK A01 T02670211  RH  071%=      5-min Rain = 0
KCL2 150444Z 14005KT 27/21 A3011 RMK A01 T02680211  RH  071%=      5-min Rain = 0
KCL2 150445Z 14005KT 27/21 A3011 RMK A01 T02680211  RH  071%=      5-min Rain = 0
KCL2 150446Z 14005KT 27/21 A3011 RMK A01 T02680211  RH  071%=      5-min Rain = 0
KCL2 150447Z 13006KT 27/21 A3011 RMK A01 T02670211  RH  071%=      5-min Rain = 0
KCL2 150448Z 12006KT 27/21 A3011 RMK A01 T02660211  RH  072%=      5-min Rain = 0
KCL2 150449Z 12006KT 27/21 A3011 RMK A01 T02660211  RH  072%=      5-min Rain = 0
KCL2 150450Z 12005KT 27/21 A3011 RMK A01 T02650211  RH  072%=      5-min Rain = 0
KCL2 150451Z 12005KT 27/21 A3011 RMK A01 T02650211  RH  072%=      5-min Rain = 0
KCL2 150452Z 13005KT 27/21 A3011 RMK A01 T02650211  RH  072%=      5-min Rain = 0
KCL2 150453Z 13005KT 27/21 A3011 RMK A01 T02650211  RH  072%=      5-min Rain = 0
KCL2 150454Z 13004KT 26/21 A3011 RMK A01 T02640211  RH  072%=      5-min Rain = 0
KCL2 150455Z 14005KT 26/21 A3011 RMK A01 T02640211  RH  072%=      5-min Rain = 0
KCL2 150456Z 14005KT 26/21 A3011 RMK A01 T02640211  RH  072%=      5-min Rain = 0
KCL2 150457Z 14005KT 26/21 A3011 RMK A01 T02640211  RH  072%=      5-min Rain = 0
KCL2 150458Z 13006KT 26/21 A3011 RMK A01 T02640210  RH  072%=      5-min Rain = 0
KCL2 150459Z 13006KT 26/21 A3011 RMK A01 T02640211  RH  072%=      5-min Rain = 0

Page generated in 0.1215 seconds.